Time,TemperatureF,DewpointF,PressureIn,WindDirection,WindDirectionDegrees,WindSpeedMPH,WindSpeedGustMPH,Humidity,HourlyPrecipIn,Conditions,Clouds,dailyrainin,SoftwareType,DateUTC
2013-01-04 00:00:00,28.1,26.9,30.30,WNW,291,1.0,0.0,95,0.00,,,0.00,WeatherTracker,2013-01-04 05:00:00,
2013-01-04 00:01:00,28.0,26.8,30.30,WNW,291,0.0,0.0,95,0.00,,,0.00,WeatherTracker,2013-01-04 05:01:00,
2013-01-04 00:05:00,27.9,26.7,30.29,WNW,291,0.0,0.0,95,0.00,,,0.00,WeatherTracker,2013-01-04 05:05:00,
2013-01-04 00:06:00,27.8,26.6,30.29,WNW,291,0.0,0.0,95,0.00,,,0.00,WeatherTracker,2013-01-04 05:06:00,
2013-01-04 00:10:00,27.3,26.1,30.29,WNW,291,0.0,0.0,95,0.00,,,0.00,WeatherTracker,2013-01-04 05:10:00,
2013-01-04 00:11:00,27.2,26.0,30.29,WNW,291,0.0,0.0,95,0.00,,,0.00,WeatherTracker,2013-01-04 05:11:00,
2013-01-04 00:15:00,27.6,26.4,30.29,WNW,291,0.0,0.0,95,0.00,,,0.00,WeatherTracker,2013-01-04 05:15:00,
2013-01-04 00:16:00,27.6,26.4,30.29,WNW,291,0.0,0.0,95,0.00,,,0.00,WeatherTracker,2013-01-04 05:16:00,
2013-01-04 00:21:00,27.9,26.7,30.28,WNW,291,0.0,0.0,95,0.00,,,0.00,WeatherTracker,2013-01-04 05:21:00,
2013-01-04 00:22:00,27.9,26.7,30.28,WNW,291,0.0,0.0,95,0.00,,,0.00,WeatherTracker,2013-01-04 05:22:00,
2013-01-04 00:26:00,28.0,26.8,30.28,WNW,291,0.0,0.0,95,0.00,,,0.00,WeatherTracker,2013-01-04 05:26:00,
2013-01-04 00:27:00,28.1,26.9,30.28,WNW,291,0.0,0.0,95,0.00,,,0.00,WeatherTracker,2013-01-04 05:27:00,
2013-01-04 00:31:00,28.0,26.8,30.29,WNW,291,0.0,0.0,95,0.00,,,0.00,WeatherTracker,2013-01-04 05:31:00,
2013-01-04 00:32:00,27.9,26.7,30.29,WNW,291,0.0,0.0,95,0.00,,,0.00,WeatherTracker,2013-01-04 05:32:00,
2013-01-04 00:33:00,27.8,26.6,30.29,WNW,291,0.0,0.0,95,0.00,,,0.00,WeatherTracker,2013-01-04 05:33:00,
2013-01-04 00:37:00,27.2,25.7,30.29,WNW,291,0.0,0.0,94,0.00,,,0.00,WeatherTracker,2013-01-04 05:37:00,
2013-01-04 00:38:00,27.1,25.6,30.29,WNW,291,2.0,0.0,94,0.00,,,0.00,WeatherTracker,2013-01-04 05:38:00,
2013-01-04 00:42:00,26.8,25.3,30.29,WNW,291,1.0,0.0,94,0.00,,,0.00,WeatherTracker,2013-01-04 05:42:00,
2013-01-04 00:43:00,26.8,25.3,30.29,WNW,291,0.0,0.0,94,0.00,,,0.00,WeatherTracker,2013-01-04 05:43:00,
2013-01-04 00:47:00,26.5,25.0,30.29,WNW,291,0.0,0.0,94,0.00,,,0.00,WeatherTracker,2013-01-04 05:47:00,
2013-01-04 00:48:00,26.5,25.0,30.29,WNW,291,0.0,0.0,94,0.00,,,0.00,WeatherTracker,2013-01-04 05:48:00,
2013-01-04 00:49:00,26.5,25.0,30.29,WNW,291,1.0,0.0,94,0.00,,,0.00,WeatherTracker,2013-01-04 05:49:00,
2013-01-04 00:52:00,26.6,25.1,30.29,WNW,291,1.0,0.0,94,0.00,,,0.00,WeatherTracker,2013-01-04 05:52:00,
2013-01-04 00:53:00,26.6,25.1,30.29,WNW,291,0.0,0.0,94,0.00,,,0.00,WeatherTracker,2013-01-04 05:53:00,
2013-01-04 00:54:00,26.6,25.1,30.29,WNW,291,1.0,0.0,94,0.00,,,0.00,WeatherTracker,2013-01-04 05:54:00,
2013-01-04 00:57:00,26.5,25.0,30.28,WNW,291,1.0,0.0,94,0.00,,,0.00,WeatherTracker,2013-01-04 05:57:00,
2013-01-04 00:58:00,26.6,25.1,30.28,WNW,291,0.0,0.0,94,0.00,,,0.00,WeatherTracker,2013-01-04 05:58:00,
2013-01-04 00:59:00,26.6,25.1,30.28,WNW,291,1.0,0.0,94,0.00,,,0.00,WeatherTracker,2013-01-04 05:59:00,
2013-01-04 01:00:00,26.7,25.2,30.28,WNW,291,1.0,0.0,94,0.00,,,0.00,WeatherTracker,2013-01-04 06:00:00,
2013-01-04 01:03:00,26.6,25.4,30.28,WNW,291,1.0,0.0,95,0.00,,,0.00,WeatherTracker,2013-01-04 06:03:00,
2013-01-04 01:04:00,26.6,25.4,30.28,WNW,291,2.0,0.0,95,0.00,,,0.00,WeatherTracker,2013-01-04 06:04:00,
2013-01-04 01:05:00,26.7,25.5,30.28,WNW,291,0.0,0.0,95,0.00,,,0.00,WeatherTracker,2013-01-04 06:05:00,
2013-01-04 01:08:00,26.7,25.5,30.28,WNW,291,0.0,0.0,95,0.00,,,0.00,WeatherTracker,2013-01-04 06:08:00,
2013-01-04 01:09:00,26.7,25.5,30.28,WNW,291,1.0,0.0,95,0.00,,,0.00,WeatherTracker,2013-01-04 06:09:00,
2013-01-04 01:10:00,26.9,25.7,30.28,WNW,291,0.0,0.0,95,0.00,,,0.00,WeatherTracker,2013-01-04 06:10:00,
2013-01-04 01:13:00,26.9,25.7,30.28,WNW,291,0.0,0.0,95,0.00,,,0.00,WeatherTracker,2013-01-04 06:13:00,
2013-01-04 01:14:00,26.9,25.7,30.28,WNW,291,0.0,0.0,95,0.00,,,0.00,WeatherTracker,2013-01-04 06:14:00,
2013-01-04 01:15:00,26.8,25.6,30.28,WNW,291,2.0,0.0,95,0.00,,,0.00,WeatherTracker,2013-01-04 06:15:00,
2013-01-04 01:18:00,26.7,25.5,30.28,WNW,291,0.0,0.0,95,0.00,,,0.00,WeatherTracker,2013-01-04 06:18:00,
2013-01-04 01:20:00,26.8,25.6,30.28,WNW,291,0.0,0.0,95,0.00,,,0.00,WeatherTracker,2013-01-04 06:20:00,
2013-01-04 01:21:00,26.9,25.7,30.28,WNW,291,0.0,0.0,95,0.00,,,0.00,WeatherTracker,2013-01-04 06:21:00,
2013-01-04 01:24:00,26.8,25.6,30.28,WNW,291,1.0,0.0,95,0.00,,,0.00,WeatherTracker,2013-01-04 06:24:00,
2013-01-04 01:25:00,26.8,25.6,30.28,WNW,291,0.0,0.0,95,0.00,,,0.00,WeatherTracker,2013-01-04 06:25:00,
2013-01-04 01:26:00,26.8,25.6,30.28,WNW,291,0.0,0.0,95,0.00,,,0.00,WeatherTracker,2013-01-04 06:26:00,
2013-01-04 01:29:00,27.0,25.8,30.28,WNW,291,0.0,0.0,95,0.00,,,0.00,WeatherTracker,2013-01-04 06:29:00,
2013-01-04 01:30:00,27.0,25.8,30.29,WNW,291,0.0,0.0,95,0.00,,,0.00,WeatherTracker,2013-01-04 06:30:00,
2013-01-04 01:31:00,27.0,25.8,30.29,WNW,291,0.0,0.0,95,0.00,,,0.00,WeatherTracker,2013-01-04 06:31:00,
2013-01-04 01:35:00,27.2,26.0,30.29,WNW,291,1.0,0.0,95,0.00,,,0.00,WeatherTracker,2013-01-04 06:35:00,
2013-01-04 01:36:00,27.1,25.9,30.29,WNW,291,0.0,0.0,95,0.00,,,0.00,WeatherTracker,2013-01-04 06:36:00,
2013-01-04 01:38:00,26.9,25.7,30.29,WNW,291,0.0,0.0,95,0.00,,,0.00,WeatherTracker,2013-01-04 06:38:00,
2013-01-04 01:40:00,27.0,25.8,30.29,WNW,291,0.0,0.0,95,0.00,,,0.00,WeatherTracker,2013-01-04 06:40:00,
2013-01-04 01:41:00,26.9,25.7,30.29,WNW,291,0.0,0.0,95,0.00,,,0.00,WeatherTracker,2013-01-04 06:41:00,
2013-01-04 01:44:00,26.8,25.6,30.29,WNW,291,1.0,0.0,95,0.00,,,0.00,WeatherTracker,2013-01-04 06:44:00,
2013-01-04 01:45:00,26.8,25.6,30.29,WNW,291,1.0,0.0,95,0.00,,,0.00,WeatherTracker,2013-01-04 06:45:00,
2013-01-04 01:46:00,26.8,25.6,30.29,WNW,291,0.0,0.0,95,0.00,,,0.00,WeatherTracker,2013-01-04 06:46:00,
2013-01-04 01:47:00,26.7,25.5,30.29,WNW,291,1.0,0.0,95,0.00,,,0.00,WeatherTracker,2013-01-04 06:47:00,
2013-01-04 01:49:00,26.8,25.3,30.29,WNW,291,0.0,0.0,94,0.00,,,0.00,WeatherTracker,2013-01-04 06:49:00,
2013-01-04 01:50:00,26.8,25.6,30.29,WNW,291,0.0,0.0,95,0.00,,,0.00,WeatherTracker,2013-01-04 06:50:00,
2013-01-04 01:52:00,27.0,25.8,30.29,WNW,291,0.0,0.0,95,0.00,,,0.00,WeatherTracker,2013-01-04 06:52:00,
2013-01-04 01:53:00,27.2,26.0,30.29,WNW,291,0.0,0.0,95,0.00,,,0.00,WeatherTracker,2013-01-04 06:53:00,
2013-01-04 01:56:00,27.4,26.2,30.29,WNW,291,0.0,0.0,95,0.00,,,0.00,WeatherTracker,2013-01-04 06:56:00,
2013-01-04 01:57:00,27.4,26.2,30.29,WNW,291,0.0,0.0,95,0.00,,,0.00,WeatherTracker,2013-01-04 06:57:00,
2013-01-04 01:58:00,27.5,26.3,30.29,WNW,291,0.0,0.0,95,0.00,,,0.00,WeatherTracker,2013-01-04 06:58:00,
2013-01-04 02:01:00,27.5,26.3,30.29,WNW,291,0.0,0.0,95,0.00,,,0.00,WeatherTracker,2013-01-04 07:01:00,
2013-01-04 02:03:00,27.5,26.3,30.29,WNW,291,0.0,0.0,95,0.00,,,0.00,WeatherTracker,2013-01-04 07:03:00,
2013-01-04 02:04:00,27.4,26.2,30.29,WNW,291,0.0,0.0,95,0.00,,,0.00,WeatherTracker,2013-01-04 07:04:00,
2013-01-04 02:07:00,27.1,25.6,30.30,WNW,291,0.0,0.0,94,0.00,,,0.00,WeatherTracker,2013-01-04 07:07:00,
2013-01-04 02:08:00,27.0,25.5,30.30,WNW,291,0.0,0.0,94,0.00,,,0.00,WeatherTracker,2013-01-04 07:08:00,
2013-01-04 02:09:00,27.0,25.5,30.30,WNW,291,0.0,0.0,94,0.00,,,0.00,WeatherTracker,2013-01-04 07:09:00,
2013-01-04 02:12:00,27.0,25.5,30.30,WNW,291,0.0,0.0,94,0.00,,,0.00,WeatherTracker,2013-01-04 07:12:00,
2013-01-04 02:13:00,27.0,25.5,30.30,WNW,291,0.0,0.0,94,0.00,,,0.00,WeatherTracker,2013-01-04 07:13:00,
2013-01-04 02:15:00,26.7,25.2,30.30,WNW,291,0.0,0.0,94,0.00,,,0.00,WeatherTracker,2013-01-04 07:15:00,
2013-01-04 02:18:00,26.4,24.9,30.30,WNW,291,1.0,0.0,94,0.00,,,0.00,WeatherTracker,2013-01-04 07:18:00,
2013-01-04 02:19:00,26.3,24.8,30.30,WNW,291,1.0,0.0,94,0.00,,,0.00,WeatherTracker,2013-01-04 07:19:00,
2013-01-04 02:20:00,26.1,24.6,30.30,WNW,291,0.0,0.0,94,0.00,,,0.00,WeatherTracker,2013-01-04 07:20:00,
2013-01-04 02:23:00,25.8,24.3,30.30,WNW,291,1.0,0.0,94,0.00,,,0.00,WeatherTracker,2013-01-04 07:23:00,
2013-01-04 02:24:00,25.7,24.2,30.31,WNW,291,0.0,0.0,94,0.00,,,0.00,WeatherTracker,2013-01-04 07:24:00,
2013-01-04 02:25:00,25.7,24.2,30.31,WNW,291,0.0,0.0,94,0.00,,,0.00,WeatherTracker,2013-01-04 07:25:00,
2013-01-04 02:29:00,26.1,24.6,30.31,WNW,291,0.0,0.0,94,0.00,,,0.00,WeatherTracker,2013-01-04 07:29:00,
2013-01-04 02:30:00,26.4,24.9,30.31,WNW,291,0.0,0.0,94,0.00,,,0.00,WeatherTracker,2013-01-04 07:30:00,
2013-01-04 02:31:00,26.6,25.1,30.31,WNW,291,0.0,0.0,94,0.00,,,0.00,WeatherTracker,2013-01-04 07:31:00,
2013-01-04 02:34:00,26.9,25.7,30.31,WNW,291,0.0,0.0,95,0.00,,,0.00,WeatherTracker,2013-01-04 07:34:00,
2013-01-04 02:35:00,27.0,25.8,30.31,WNW,291,0.0,0.0,95,0.00,,,0.00,WeatherTracker,2013-01-04 07:35:00,
2013-01-04 02:36:00,27.1,25.9,30.31,WNW,291,0.0,0.0,95,0.00,,,0.00,WeatherTracker,2013-01-04 07:36:00,
2013-01-04 02:39:00,27.1,25.9,30.31,WNW,291,0.0,0.0,95,0.00,,,0.00,WeatherTracker,2013-01-04 07:39:00,
2013-01-04 02:40:00,27.1,25.9,30.32,WNW,291,0.0,0.0,95,0.00,,,0.00,WeatherTracker,2013-01-04 07:40:00,
2013-01-04 02:41:00,27.0,25.8,30.32,WNW,291,0.0,0.0,95,0.00,,,0.00,WeatherTracker,2013-01-04 07:41:00,
2013-01-04 02:42:00,27.0,25.8,30.32,WNW,291,0.0,0.0,95,0.00,,,0.00,WeatherTracker,2013-01-04 07:42:00,
2013-01-04 02:44:00,26.9,25.7,30.32,WNW,291,0.0,0.0,95,0.00,,,0.00,WeatherTracker,2013-01-04 07:44:00,
2013-01-04 02:45:00,26.8,25.6,30.32,WNW,291,0.0,0.0,95,0.00,,,0.00,WeatherTracker,2013-01-04 07:45:00,
2013-01-04 02:47:00,26.7,25.5,30.32,WNW,291,0.0,0.0,95,0.00,,,0.00,WeatherTracker,2013-01-04 07:47:00,
2013-01-04 02:48:00,26.8,25.6,30.32,WNW,291,0.0,0.0,95,0.00,,,0.00,WeatherTracker,2013-01-04 07:48:00,
2013-01-04 02:50:00,26.9,25.7,30.32,WNW,291,1.0,0.0,95,0.00,,,0.00,WeatherTracker,2013-01-04 07:50:00,
2013-01-04 02:52:00,27.0,25.8,30.32,WNW,291,0.0,0.0,95,0.00,,,0.00,WeatherTracker,2013-01-04 07:52:00,
2013-01-04 02:53:00,26.9,25.7,30.32,WNW,291,0.0,0.0,95,0.00,,,0.00,WeatherTracker,2013-01-04 07:53:00,
2013-01-04 02:55:00,26.8,25.6,30.32,WNW,291,0.0,0.0,95,0.00,,,0.00,WeatherTracker,2013-01-04 07:55:00,
2013-01-04 02:58:00,26.4,24.9,30.32,WNW,291,0.0,0.0,94,0.00,,,0.00,WeatherTracker,2013-01-04 07:58:00,
2013-01-04 02:59:00,26.3,24.8,30.32,WNW,291,0.0,0.0,94,0.00,,,0.00,WeatherTracker,2013-01-04 07:59:00,
2013-01-04 03:01:00,26.1,24.6,30.31,WNW,291,1.0,0.0,94,0.00,,,0.00,WeatherTracker,2013-01-04 08:01:00,
2013-01-04 03:04:00,26.7,25.2,30.31,WNW,291,1.0,0.0,94,0.00,,,0.00,WeatherTracker,2013-01-04 08:04:00,
2013-01-04 03:06:00,27.1,25.9,30.31,WNW,291,1.0,0.0,95,0.00,,,0.00,WeatherTracker,2013-01-04 08:06:00,
2013-01-04 03:09:00,27.5,26.3,30.31,WNW,291,0.0,0.0,95,0.00,,,0.00,WeatherTracker,2013-01-04 08:09:00,
2013-01-04 03:11:00,27.2,25.7,30.31,WNW,291,1.0,0.0,94,0.00,,,0.00,WeatherTracker,2013-01-04 08:11:00,
2013-01-04 03:14:00,26.8,25.3,30.32,WNW,291,1.0,0.0,94,0.00,,,0.00,WeatherTracker,2013-01-04 08:14:00,
2013-01-04 03:15:00,26.7,25.2,30.32,WNW,291,0.0,0.0,94,0.00,,,0.00,WeatherTracker,2013-01-04 08:15:00,
2013-01-04 03:16:00,26.6,25.1,30.32,WNW,291,1.0,0.0,94,0.00,,,0.00,WeatherTracker,2013-01-04 08:16:00,
2013-01-04 03:17:00,26.5,24.8,30.32,WNW,291,1.0,0.0,93,0.00,,,0.00,WeatherTracker,2013-01-04 08:17:00,
2013-01-04 03:19:00,26.5,24.8,30.31,WNW,291,0.0,0.0,93,0.00,,,0.00,WeatherTracker,2013-01-04 08:19:00,
2013-01-04 03:20:00,26.4,24.9,30.31,WNW,291,0.0,0.0,94,0.00,,,0.00,WeatherTracker,2013-01-04 08:20:00,
2013-01-04 03:21:00,26.4,24.9,30.31,WNW,291,0.0,0.0,94,0.00,,,0.00,WeatherTracker,2013-01-04 08:21:00,
2013-01-04 03:22:00,26.3,24.8,30.31,WNW,291,0.0,0.0,94,0.00,,,0.00,WeatherTracker,2013-01-04 08:22:00,
2013-01-04 03:25:00,26.2,24.7,30.31,WNW,291,0.0,0.0,94,0.00,,,0.00,WeatherTracker,2013-01-04 08:25:00,
2013-01-04 03:26:00,26.3,24.8,30.31,WNW,291,0.0,0.0,94,0.00,,,0.00,WeatherTracker,2013-01-04 08:26:00,
2013-01-04 03:28:00,26.2,24.7,30.31,WNW,291,0.0,0.0,94,0.00,,,0.00,WeatherTracker,2013-01-04 08:28:00,
2013-01-04 03:30:00,26.3,24.8,30.31,WNW,291,0.0,0.0,94,0.00,,,0.00,WeatherTracker,2013-01-04 08:30:00,
2013-01-04 03:31:00,26.3,24.8,30.31,WNW,291,0.0,0.0,94,0.00,,,0.00,WeatherTracker,2013-01-04 08:31:00,
2013-01-04 03:33:00,26.4,24.9,30.31,WNW,291,0.0,0.0,94,0.00,,,0.00,WeatherTracker,2013-01-04 08:33:00,
2013-01-04 03:36:00,26.6,25.1,30.31,WNW,291,0.0,0.0,94,0.00,,,0.00,WeatherTracker,2013-01-04 08:36:00,
2013-01-04 03:37:00,26.6,25.1,30.31,WNW,291,0.0,0.0,94,0.00,,,0.00,WeatherTracker,2013-01-04 08:37:00,
2013-01-04 03:38:00,26.5,25.0,30.31,WNW,291,0.0,0.0,94,0.00,,,0.00,WeatherTracker,2013-01-04 08:38:00,
2013-01-04 03:41:00,26.2,24.7,30.31,WNW,291,0.0,0.0,94,0.00,,,0.00,WeatherTracker,2013-01-04 08:41:00,
2013-01-04 03:42:00,26.3,24.8,30.31,WNW,291,0.0,0.0,94,0.00,,,0.00,WeatherTracker,2013-01-04 08:42:00,
2013-01-04 03:44:00,26.5,25.0,30.31,WNW,291,0.0,0.0,94,0.00,,,0.00,WeatherTracker,2013-01-04 08:44:00,
2013-01-04 03:46:00,26.7,25.2,30.30,WNW,291,0.0,0.0,94,0.00,,,0.00,WeatherTracker,2013-01-04 08:46:00,
2013-01-04 03:47:00,26.7,25.2,30.30,WNW,291,0.0,0.0,94,0.00,,,0.00,WeatherTracker,2013-01-04 08:47:00,
2013-01-04 03:48:00,26.8,25.3,30.30,WNW,291,0.0,0.0,94,0.00,,,0.00,WeatherTracker,2013-01-04 08:48:00,
2013-01-04 03:49:00,26.9,25.4,30.30,WNW,291,0.0,0.0,94,0.00,,,0.00,WeatherTracker,2013-01-04 08:49:00,
2013-01-04 03:51:00,26.8,25.3,30.30,WNW,291,0.0,0.0,94,0.00,,,0.00,WeatherTracker,2013-01-04 08:51:00,
2013-01-04 03:52:00,26.8,25.3,30.30,WNW,291,0.0,0.0,94,0.00,,,0.00,WeatherTracker,2013-01-04 08:52:00,
2013-01-04 03:53:00,26.8,25.3,30.30,WNW,291,0.0,0.0,94,0.00,,,0.00,WeatherTracker,2013-01-04 08:53:00,
2013-01-04 03:54:00,26.7,25.2,30.30,WNW,291,0.0,0.0,94,0.00,,,0.00,WeatherTracker,2013-01-04 08:54:00,
2013-01-04 03:58:00,26.7,25.2,30.30,WNW,291,0.0,0.0,94,0.00,,,0.00,WeatherTracker,2013-01-04 08:58:00,
2013-01-04 03:59:00,26.7,25.2,30.30,WNW,291,0.0,0.0,94,0.00,,,0.00,WeatherTracker,2013-01-04 08:59:00,
2013-01-04 04:00:00,26.7,25.2,30.30,WNW,291,0.0,0.0,94,0.00,,,0.00,WeatherTracker,2013-01-04 09:00:00,
2013-01-04 04:03:00,26.6,25.1,30.30,WNW,291,0.0,0.0,94,0.00,,,0.00,WeatherTracker,2013-01-04 09:03:00,
2013-01-04 04:04:00,26.6,25.1,30.30,WNW,291,0.0,0.0,94,0.00,,,0.00,WeatherTracker,2013-01-04 09:04:00,
2013-01-04 04:05:00,26.6,25.1,30.30,WNW,291,0.0,0.0,94,0.00,,,0.00,WeatherTracker,2013-01-04 09:05:00,
2013-01-04 04:09:00,26.6,25.1,30.30,WNW,291,0.0,0.0,94,0.00,,,0.00,WeatherTracker,2013-01-04 09:09:00,
2013-01-04 04:10:00,26.5,25.0,30.30,WNW,291,0.0,0.0,94,0.00,,,0.00,WeatherTracker,2013-01-04 09:10:00,
2013-01-04 04:14:00,26.0,24.3,30.30,WNW,291,0.0,0.0,93,0.00,,,0.00,WeatherTracker,2013-01-04 09:14:00,
2013-01-04 04:15:00,25.9,24.2,30.30,WNW,291,0.0,0.0,93,0.00,,,0.00,WeatherTracker,2013-01-04 09:15:00,
2013-01-04 04:16:00,25.8,24.1,30.30,WNW,291,0.0,0.0,93,0.00,,,0.00,WeatherTracker,2013-01-04 09:16:00,
2013-01-04 04:20:00,25.6,23.9,30.30,WNW,291,0.0,0.0,93,0.00,,,0.00,WeatherTracker,2013-01-04 09:20:00,
2013-01-04 04:21:00,25.5,23.8,30.30,WNW,291,0.0,0.0,93,0.00,,,0.00,WeatherTracker,2013-01-04 09:21:00,
2013-01-04 04:25:00,25.1,23.4,30.30,WNW,291,1.0,0.0,93,0.00,,,0.00,WeatherTracker,2013-01-04 09:25:00,
2013-01-04 04:26:00,25.1,23.4,30.30,WNW,291,1.0,0.0,93,0.00,,,0.00,WeatherTracker,2013-01-04 09:26:00,
2013-01-04 04:27:00,25.0,23.3,30.30,WNW,291,0.0,0.0,93,0.00,,,0.00,WeatherTracker,2013-01-04 09:27:00,
2013-01-04 04:30:00,24.9,23.4,30.30,WNW,291,0.0,0.0,94,0.00,,,0.00,WeatherTracker,2013-01-04 09:30:00,
2013-01-04 04:31:00,24.9,23.2,30.30,WNW,291,0.0,0.0,93,0.00,,,0.00,WeatherTracker,2013-01-04 09:31:00,
2013-01-04 04:32:00,24.9,23.4,30.30,WNW,291,0.0,0.0,94,0.00,,,0.00,WeatherTracker,2013-01-04 09:32:00,
2013-01-04 04:35:00,25.4,23.9,30.30,WNW,291,1.0,0.0,94,0.00,,,0.00,WeatherTracker,2013-01-04 09:35:00,
2013-01-04 04:36:00,25.4,23.9,30.30,WNW,291,1.0,0.0,94,0.00,,,0.00,WeatherTracker,2013-01-04 09:36:00,
2013-01-04 04:37:00,25.5,24.0,30.30,WNW,291,1.0,0.0,94,0.00,,,0.00,WeatherTracker,2013-01-04 09:37:00,
2013-01-04 04:41:00,25.3,23.8,30.30,WNW,291,0.0,0.0,94,0.00,,,0.00,WeatherTracker,2013-01-04 09:41:00,
2013-01-04 04:42:00,25.1,23.6,30.30,WNW,291,0.0,0.0,94,0.00,,,0.00,WeatherTracker,2013-01-04 09:42:00,
2013-01-04 04:46:00,25.1,23.6,30.30,WNW,291,1.0,0.0,94,0.00,,,0.00,WeatherTracker,2013-01-04 09:46:00,
2013-01-04 04:47:00,25.0,23.5,30.30,WNW,291,2.0,0.0,94,0.00,,,0.00,WeatherTracker,2013-01-04 09:47:00,
2013-01-04 04:49:00,25.0,23.5,30.30,WNW,291,0.0,0.0,94,0.00,,,0.00,WeatherTracker,2013-01-04 09:49:00,
2013-01-04 04:51:00,25.0,23.5,30.30,WNW,291,0.0,0.0,94,0.00,,,0.00,WeatherTracker,2013-01-04 09:51:00,
2013-01-04 04:52:00,25.1,23.6,30.30,WNW,291,1.0,0.0,94,0.00,,,0.00,WeatherTracker,2013-01-04 09:52:00,
2013-01-04 04:54:00,25.3,23.8,30.30,WNW,291,1.0,0.0,94,0.00,,,0.00,WeatherTracker,2013-01-04 09:54:00,
2013-01-04 04:56:00,25.7,24.2,30.30,WNW,291,0.0,0.0,94,0.00,,,0.00,WeatherTracker,2013-01-04 09:56:00,
2013-01-04 04:59:00,25.6,24.1,30.30,WNW,291,1.0,0.0,94,0.00,,,0.00,WeatherTracker,2013-01-04 09:59:00,
2013-01-04 05:00:00,25.6,24.1,30.30,WNW,291,1.0,0.0,94,0.00,,,0.00,WeatherTracker,2013-01-04 10:00:00,
2013-01-04 05:02:00,25.7,24.2,30.31,WNW,291,1.0,0.0,94,0.00,,,0.00,WeatherTracker,2013-01-04 10:02:00,
2013-01-04 05:04:00,25.8,24.3,30.31,WNW,291,1.0,0.0,94,0.00,,,0.00,WeatherTracker,2013-01-04 10:04:00,
2013-01-04 05:05:00,25.8,24.3,30.31,WNW,291,1.0,0.0,94,0.00,,,0.00,WeatherTracker,2013-01-04 10:05:00,
2013-01-04 05:07:00,26.0,24.5,30.31,WNW,291,1.0,0.0,94,0.00,,,0.00,WeatherTracker,2013-01-04 10:07:00,
2013-01-04 05:09:00,26.2,24.7,30.31,WNW,291,2.0,0.0,94,0.00,,,0.00,WeatherTracker,2013-01-04 10:09:00,
2013-01-04 05:10:00,26.3,24.6,30.31,WNW,291,1.0,0.0,93,0.00,,,0.00,WeatherTracker,2013-01-04 10:10:00,
2013-01-04 05:12:00,26.4,24.7,30.31,WNW,291,2.0,0.0,93,0.00,,,0.00,WeatherTracker,2013-01-04 10:12:00,
2013-01-04 05:14:00,26.6,24.9,30.31,WNW,291,1.0,0.0,93,0.00,,,0.00,WeatherTracker,2013-01-04 10:14:00,
2013-01-04 05:15:00,26.7,24.7,30.31,WNW,291,0.0,0.0,92,0.00,,,0.00,WeatherTracker,2013-01-04 10:15:00,
2013-01-04 05:17:00,26.7,24.7,30.31,WNW,291,1.0,0.0,92,0.00,,,0.00,WeatherTracker,2013-01-04 10:17:00,
2013-01-04 05:19:00,26.7,24.7,30.31,WNW,291,0.0,0.0,92,0.00,,,0.00,WeatherTracker,2013-01-04 10:19:00,
2013-01-04 05:20:00,26.6,24.3,30.31,WNW,291,1.0,0.0,91,0.00,,,0.00,WeatherTracker,2013-01-04 10:20:00,
2013-01-04 05:21:00,26.6,24.3,30.31,WNW,291,1.0,0.0,91,0.00,,,0.00,WeatherTracker,2013-01-04 10:21:00,
2013-01-04 05:23:00,26.6,24.6,30.31,WNW,291,0.0,0.0,92,0.00,,,0.00,WeatherTracker,2013-01-04 10:23:00,
2013-01-04 05:25:00,26.6,24.6,30.31,WNW,291,0.0,0.0,92,0.00,,,0.00,WeatherTracker,2013-01-04 10:25:00,
2013-01-04 05:26:00,26.5,24.5,30.31,WNW,291,0.0,0.0,92,0.00,,,0.00,WeatherTracker,2013-01-04 10:26:00,
2013-01-04 05:28:00,26.5,24.2,30.31,WNW,291,0.0,0.0,91,0.00,,,0.00,WeatherTracker,2013-01-04 10:28:00,
2013-01-04 05:30:00,26.6,24.6,30.31,WNW,291,1.0,0.0,92,0.00,,,0.00,WeatherTracker,2013-01-04 10:30:00,
2013-01-04 05:31:00,26.7,24.7,30.31,WNW,291,0.0,0.0,92,0.00,,,0.00,WeatherTracker,2013-01-04 10:31:00,
2013-01-04 05:32:00,26.9,24.6,30.31,WNW,291,1.0,0.0,91,0.00,,,0.00,WeatherTracker,2013-01-04 10:32:00,
2013-01-04 05:34:00,27.2,24.9,30.31,WNW,291,1.0,0.0,91,0.00,,,0.00,WeatherTracker,2013-01-04 10:34:00,
2013-01-04 05:36:00,27.4,24.9,30.31,WNW,291,0.0,0.0,90,0.00,,,0.00,WeatherTracker,2013-01-04 10:36:00,
2013-01-04 05:37:00,27.4,24.9,30.31,WNW,291,0.0,0.0,90,0.00,,,0.00,WeatherTracker,2013-01-04 10:37:00,
2013-01-04 05:38:00,27.4,24.9,30.31,WNW,291,0.0,0.0,90,0.00,,,0.00,WeatherTracker,2013-01-04 10:38:00,
2013-01-04 05:39:00,27.3,24.8,30.31,WNW,291,0.0,0.0,90,0.00,,,0.00,WeatherTracker,2013-01-04 10:39:00,
2013-01-04 05:42:00,27.3,24.8,30.31,WNW,291,1.0,0.0,90,0.00,,,0.00,WeatherTracker,2013-01-04 10:42:00,
2013-01-04 05:43:00,27.4,24.9,30.31,WNW,291,0.0,0.0,90,0.00,,,0.00,WeatherTracker,2013-01-04 10:43:00,
2013-01-04 05:44:00,27.6,25.1,30.30,WNW,291,1.0,0.0,90,0.00,,,0.00,WeatherTracker,2013-01-04 10:44:00,
2013-01-04 05:47:00,27.7,24.9,30.30,WNW,291,1.0,0.0,89,0.00,,,0.00,WeatherTracker,2013-01-04 10:47:00,
2013-01-04 05:48:00,27.6,24.8,30.31,WNW,291,1.0,0.0,89,0.00,,,0.00,WeatherTracker,2013-01-04 10:48:00,
2013-01-04 05:50:00,27.5,24.7,30.31,WNW,291,0.0,0.0,89,0.00,,,0.00,WeatherTracker,2013-01-04 10:50:00,
2013-01-04 05:52:00,27.4,24.6,30.31,WNW,291,1.0,0.0,89,0.00,,,0.00,WeatherTracker,2013-01-04 10:52:00,
2013-01-04 05:53:00,27.3,24.5,30.31,WNW,291,1.0,0.0,89,0.00,,,0.00,WeatherTracker,2013-01-04 10:53:00,
2013-01-04 05:54:00,27.4,24.6,30.31,WNW,291,0.0,0.0,89,0.00,,,0.00,WeatherTracker,2013-01-04 10:54:00,
2013-01-04 05:56:00,27.4,24.6,30.31,WNW,291,1.0,0.0,89,0.00,,,0.00,WeatherTracker,2013-01-04 10:56:00,
2013-01-04 05:57:00,27.5,24.7,30.31,WNW,291,1.0,0.0,89,0.00,,,0.00,WeatherTracker,2013-01-04 10:57:00,
2013-01-04 05:58:00,27.6,24.8,30.31,WNW,291,0.0,0.0,89,0.00,,,0.00,WeatherTracker,2013-01-04 10:58:00,
2013-01-04 05:59:00,27.6,24.8,30.31,WNW,291,1.0,0.0,89,0.00,,,0.00,WeatherTracker,2013-01-04 10:59:00,
2013-01-04 06:01:00,27.4,24.6,30.31,WNW,291,2.0,0.0,89,0.00,,,0.00,WeatherTracker,2013-01-04 11:01:00,
2013-01-04 06:02:00,27.1,24.3,30.31,WNW,291,1.0,0.0,89,0.00,,,0.00,WeatherTracker,2013-01-04 11:02:00,
2013-01-04 06:04:00,26.7,23.6,30.31,WNW,291,0.0,0.0,88,0.00,,,0.00,WeatherTracker,2013-01-04 11:04:00,
2013-01-04 06:06:00,26.2,23.4,30.31,WNW,291,0.0,0.0,89,0.00,,,0.00,WeatherTracker,2013-01-04 11:06:00,
2013-01-04 06:08:00,26.0,23.5,30.31,WNW,291,1.0,0.0,90,0.00,,,0.00,WeatherTracker,2013-01-04 11:08:00,
2013-01-04 06:09:00,25.9,23.4,30.31,WNW,291,2.0,0.0,90,0.00,,,0.00,WeatherTracker,2013-01-04 11:09:00,
2013-01-04 06:11:00,26.0,23.7,30.31,WNW,291,1.0,0.0,91,0.00,,,0.00,WeatherTracker,2013-01-04 11:11:00,
2013-01-04 06:13:00,26.1,23.6,30.31,WNW,291,0.0,0.0,90,0.00,,,0.00,WeatherTracker,2013-01-04 11:13:00,
2013-01-04 06:14:00,26.1,23.6,30.31,WNW,291,1.0,0.0,90,0.00,,,0.00,WeatherTracker,2013-01-04 11:14:00,
2013-01-04 06:17:00,26.0,23.5,30.31,WNW,291,1.0,0.0,90,0.00,,,0.00,WeatherTracker,2013-01-04 11:17:00,
2013-01-04 06:19:00,25.9,23.4,30.31,WNW,291,1.0,0.0,90,0.00,,,0.00,WeatherTracker,2013-01-04 11:19:00,
2013-01-04 06:20:00,25.9,23.4,30.31,WNW,291,1.0,0.0,90,0.00,,,0.00,WeatherTracker,2013-01-04 11:20:00,
2013-01-04 06:23:00,25.9,23.6,30.31,WNW,291,1.0,0.0,91,0.00,,,0.00,WeatherTracker,2013-01-04 11:23:00,
2013-01-04 06:24:00,26.0,23.7,30.31,WNW,291,1.0,0.0,91,0.00,,,0.00,WeatherTracker,2013-01-04 11:24:00,
2013-01-04 06:25:00,26.0,23.7,30.31,WNW,291,0.0,0.0,91,0.00,,,0.00,WeatherTracker,2013-01-04 11:25:00,
2013-01-04 06:26:00,26.0,23.7,30.31,WNW,291,1.0,0.0,91,0.00,,,0.00,WeatherTracker,2013-01-04 11:26:00,
2013-01-04 06:28:00,26.2,23.7,30.31,WNW,291,1.0,0.0,90,0.00,,,0.00,WeatherTracker,2013-01-04 11:28:00,
2013-01-04 06:29:00,26.4,23.9,30.31,WNW,291,0.0,0.0,90,0.00,,,0.00,WeatherTracker,2013-01-04 11:29:00,
2013-01-04 06:30:00,26.5,24.0,30.31,WNW,291,0.0,0.0,90,0.00,,,0.00,WeatherTracker,2013-01-04 11:30:00,
2013-01-04 06:32:00,26.6,24.1,30.31,WNW,291,0.0,0.0,90,0.00,,,0.00,WeatherTracker,2013-01-04 11:32:00,
2013-01-04 06:33:00,26.7,24.2,30.31,WNW,291,1.0,0.0,90,0.00,,,0.00,WeatherTracker,2013-01-04 11:33:00,
2013-01-04 06:35:00,26.7,23.9,30.31,WNW,291,1.0,0.0,89,0.00,,,0.00,WeatherTracker,2013-01-04 11:35:00,
2013-01-04 06:37:00,26.7,23.9,30.31,WNW,291,1.0,0.0,89,0.00,,,0.00,WeatherTracker,2013-01-04 11:37:00,
2013-01-04 06:39:00,26.7,23.9,30.31,WNW,291,1.0,0.0,89,0.00,,,0.00,WeatherTracker,2013-01-04 11:39:00,
2013-01-04 06:40:00,26.7,23.9,30.31,WNW,291,0.0,0.0,89,0.00,,,0.00,WeatherTracker,2013-01-04 11:40:00,
2013-01-04 06:42:00,26.7,23.9,30.31,WNW,291,0.0,0.0,89,0.00,,,0.00,WeatherTracker,2013-01-04 11:42:00,
2013-01-04 06:43:00,26.7,23.9,30.31,WNW,291,0.0,0.0,89,0.00,,,0.00,WeatherTracker,2013-01-04 11:43:00,
2013-01-04 06:45:00,26.8,24.0,30.31,WNW,291,0.0,0.0,89,0.00,,,0.00,WeatherTracker,2013-01-04 11:45:00,
2013-01-04 06:47:00,27.0,23.9,30.31,WNW,291,1.0,0.0,88,0.00,,,0.00,WeatherTracker,2013-01-04 11:47:00,
2013-01-04 06:49:00,27.1,24.0,30.31,WNW,291,2.0,0.0,88,0.00,,,0.00,WeatherTracker,2013-01-04 11:49:00,
2013-01-04 06:50:00,27.0,23.9,30.31,WNW,291,1.0,0.0,88,0.00,,,0.00,WeatherTracker,2013-01-04 11:50:00,
2013-01-04 06:52:00,27.0,23.9,30.31,WNW,291,1.0,0.0,88,0.00,,,0.00,WeatherTracker,2013-01-04 11:52:00,
2013-01-04 06:55:00,26.9,23.8,30.31,WNW,291,1.0,0.0,88,0.00,,,0.00,WeatherTracker,2013-01-04 11:55:00,
2013-01-04 06:56:00,26.8,23.7,30.31,WNW,291,0.0,0.0,88,0.00,,,0.00,WeatherTracker,2013-01-04 11:56:00,
2013-01-04 06:58:00,26.7,23.6,30.31,WNW,292,1.0,0.0,88,0.00,,,0.00,WeatherTracker,2013-01-04 11:58:00,
2013-01-04 07:00:00,26.7,23.6,30.31,WNW,292,2.0,0.0,88,0.00,,,0.00,WeatherTracker,2013-01-04 12:00:00,
2013-01-04 07:01:00,26.8,24.0,30.31,WNW,292,1.0,0.0,89,0.00,,,0.00,WeatherTracker,2013-01-04 12:01:00,
2013-01-04 07:04:00,27.3,24.2,30.32,West,280,2.0,0.0,88,0.00,,,0.00,WeatherTracker,2013-01-04 12:04:00,
2013-01-04 07:05:00,27.5,24.4,30.32,West,280,2.0,0.0,88,0.00,,,0.00,WeatherTracker,2013-01-04 12:05:00,
2013-01-04 07:06:00,27.7,24.6,30.32,West,280,2.0,0.0,88,0.00,,,0.00,WeatherTracker,2013-01-04 12:06:00,
2013-01-04 07:10:00,28.2,24.6,30.32,West,280,1.0,0.0,86,0.00,,,0.00,WeatherTracker,2013-01-04 12:10:00,
2013-01-04 07:11:00,28.1,24.5,30.32,West,280,0.0,0.0,86,0.00,,,0.00,WeatherTracker,2013-01-04 12:11:00,
2013-01-04 07:15:00,28.0,24.4,30.32,West,275,4.0,0.0,86,0.00,,,0.00,WeatherTracker,2013-01-04 12:15:00,
2013-01-04 07:16:00,28.1,24.5,30.32,West,275,1.0,0.0,86,0.00,,,0.00,WeatherTracker,2013-01-04 12:16:00,
2013-01-04 07:17:00,28.1,24.5,30.32,West,275,1.0,0.0,86,0.00,,,0.00,WeatherTracker,2013-01-04 12:17:00,
2013-01-04 07:20:00,28.2,24.3,30.32,West,269,1.0,0.0,85,0.00,,,0.00,WeatherTracker,2013-01-04 12:20:00,
2013-01-04 07:21:00,28.3,24.4,30.32,West,269,1.0,0.0,85,0.00,,,0.00,WeatherTracker,2013-01-04 12:21:00,
2013-01-04 07:22:00,28.4,24.5,30.32,West,269,0.0,0.0,85,0.00,,,0.00,WeatherTracker,2013-01-04 12:22:00,
2013-01-04 07:25:00,28.8,24.6,30.32,NW,317,0.0,0.0,84,0.00,,,0.00,WeatherTracker,2013-01-04 12:25:00,
2013-01-04 07:27:00,28.9,24.7,30.32,NW,317,1.0,0.0,84,0.00,,,0.00,WeatherTracker,2013-01-04 12:27:00,
2013-01-04 07:28:00,29.0,24.8,30.32,NW,317,0.0,0.0,84,0.00,,,0.00,WeatherTracker,2013-01-04 12:28:00,
2013-01-04 07:29:00,29.0,24.5,30.32,NW,317,0.0,0.0,83,0.00,,,0.00,WeatherTracker,2013-01-04 12:29:00,
2013-01-04 07:31:00,29.1,24.6,30.32,NW,317,1.0,0.0,83,0.00,,,0.00,WeatherTracker,2013-01-04 12:31:00,
2013-01-04 07:32:00,29.0,24.5,30.32,NW,317,1.0,0.0,83,0.00,,,0.00,WeatherTracker,2013-01-04 12:32:00,
2013-01-04 07:33:00,29.0,24.5,30.32,NW,317,1.0,0.0,83,0.00,,,0.00,WeatherTracker,2013-01-04 12:33:00,
2013-01-04 07:34:00,29.0,24.5,30.32,NW,317,2.0,0.0,83,0.00,,,0.00,WeatherTracker,2013-01-04 12:34:00,
2013-01-04 07:36:00,29.1,24.6,30.32,WNW,284,1.0,0.0,83,0.00,,,0.00,WeatherTracker,2013-01-04 12:36:00,
2013-01-04 07:37:00,29.1,24.6,30.32,West,262,0.0,0.0,83,0.00,,,0.00,WeatherTracker,2013-01-04 12:37:00,
2013-01-04 07:38:00,29.2,24.4,30.32,West,262,0.0,0.0,82,0.00,,,0.00,WeatherTracker,2013-01-04 12:38:00,
2013-01-04 07:39:00,29.1,24.3,30.32,West,262,0.0,0.0,82,0.00,,,0.00,WeatherTracker,2013-01-04 12:39:00,
2013-01-04 07:42:00,29.0,24.5,30.32,West,262,0.0,0.0,83,0.00,,,0.00,WeatherTracker,2013-01-04 12:42:00,
2013-01-04 07:43:00,28.8,24.3,30.32,West,262,0.0,0.0,83,0.00,,,0.00,WeatherTracker,2013-01-04 12:43:00,
2013-01-04 07:45:00,28.6,24.1,30.32,West,262,0.0,0.0,83,0.00,,,0.00,WeatherTracker,2013-01-04 12:45:00,
2013-01-04 07:47:00,28.5,24.3,30.32,West,262,0.0,0.0,84,0.00,,,0.00,WeatherTracker,2013-01-04 12:47:00,
2013-01-04 07:48:00,28.6,24.4,30.32,West,262,0.0,0.0,84,0.00,,,0.00,WeatherTracker,2013-01-04 12:48:00,
2013-01-04 07:49:00,28.7,24.5,30.32,West,262,0.0,0.0,84,0.00,,,0.00,WeatherTracker,2013-01-04 12:49:00,
2013-01-04 07:50:00,28.8,24.3,30.32,West,262,0.0,0.0,83,0.00,,,0.00,WeatherTracker,2013-01-04 12:50:00,
2013-01-04 07:52:00,29.3,24.5,30.32,WSW,238,1.0,0.0,82,0.00,,,0.00,WeatherTracker,2013-01-04 12:52:00,
2013-01-04 07:53:00,29.4,24.6,30.32,WSW,238,0.0,0.0,82,0.00,,,0.00,WeatherTracker,2013-01-04 12:53:00,
2013-01-04 07:55:00,29.5,24.7,30.32,WSW,238,1.0,0.0,82,0.00,,,0.00,WeatherTracker,2013-01-04 12:55:00,
2013-01-04 07:57:00,29.5,24.7,30.32,WSW,238,1.0,0.0,82,0.00,,,0.00,WeatherTracker,2013-01-04 12:57:00,
2013-01-04 07:59:00,29.5,24.4,30.32,WSW,238,0.0,0.0,81,0.00,,,0.00,WeatherTracker,2013-01-04 12:59:00,
2013-01-04 08:00:00,29.6,24.5,30.32,WSW,238,1.0,0.0,81,0.00,,,0.00,WeatherTracker,2013-01-04 13:00:00,
2013-01-04 08:01:00,29.7,24.6,30.32,WSW,238,2.0,0.0,81,0.00,,,0.00,WeatherTracker,2013-01-04 13:01:00,
2013-01-04 08:02:00,29.8,24.7,30.32,WSW,238,0.0,0.0,81,0.00,,,0.00,WeatherTracker,2013-01-04 13:02:00,
2013-01-04 08:04:00,29.9,24.8,30.32,WSW,238,0.0,0.0,81,0.00,,,0.00,WeatherTracker,2013-01-04 13:04:00,
2013-01-04 08:05:00,30.0,24.9,30.32,WSW,238,1.0,0.0,81,0.00,,,0.00,WeatherTracker,2013-01-04 13:05:00,
2013-01-04 08:06:00,30.0,24.6,30.32,WSW,238,0.0,0.0,80,0.00,,,0.00,WeatherTracker,2013-01-04 13:06:00,
2013-01-04 08:07:00,30.1,24.7,30.32,WSW,238,1.0,0.0,80,0.00,,,0.00,WeatherTracker,2013-01-04 13:07:00,
2013-01-04 08:10:00,30.4,24.7,30.32,WSW,238,0.0,0.0,79,0.00,,,0.00,WeatherTracker,2013-01-04 13:10:00,
2013-01-04 08:11:00,30.4,24.7,30.32,WSW,238,1.0,0.0,79,0.00,,,0.00,WeatherTracker,2013-01-04 13:11:00,
2013-01-04 08:13:00,30.6,24.9,30.32,NW,323,1.0,0.0,79,0.00,,,0.00,WeatherTracker,2013-01-04 13:13:00,
2013-01-04 08:15:00,30.7,24.7,30.32,WNW,290,1.0,0.0,78,0.00,,,0.00,WeatherTracker,2013-01-04 13:15:00,
2013-01-04 08:16:00,30.7,24.7,30.32,WNW,290,0.0,0.0,78,0.00,,,0.00,WeatherTracker,2013-01-04 13:16:00,
2013-01-04 08:17:00,30.7,24.7,30.32,WNW,290,1.0,0.0,78,0.00,,,0.00,WeatherTracker,2013-01-04 13:17:00,
2013-01-04 08:19:00,30.9,24.6,30.32,West,265,1.0,0.0,77,0.00,,,0.00,WeatherTracker,2013-01-04 13:19:00,
2013-01-04 08:20:00,30.9,24.9,30.32,West,265,1.0,0.0,78,0.00,,,0.00,WeatherTracker,2013-01-04 13:20:00,
2013-01-04 08:21:00,30.8,24.8,30.32,West,267,2.0,0.0,78,0.00,,,0.00,WeatherTracker,2013-01-04 13:21:00,
2013-01-04 08:22:00,30.8,24.8,30.32,West,267,2.0,0.0,78,0.00,,,0.00,WeatherTracker,2013-01-04 13:22:00,
2013-01-04 08:25:00,30.8,24.8,30.32,West,279,0.0,0.0,78,0.00,,,0.00,WeatherTracker,2013-01-04 13:25:00,
2013-01-04 08:27:00,30.8,24.8,30.32,West,279,0.0,0.0,78,0.00,,,0.00,WeatherTracker,2013-01-04 13:27:00,
2013-01-04 08:28:00,30.8,24.8,30.33,West,279,2.0,0.0,78,0.00,,,0.00,WeatherTracker,2013-01-04 13:28:00,
2013-01-04 08:31:00,30.7,25.0,30.33,West,279,3.0,0.0,79,0.00,,,0.00,WeatherTracker,2013-01-04 13:31:00,
2013-01-04 08:32:00,30.7,25.0,30.33,WSW,242,2.0,0.0,79,0.00,,,0.00,WeatherTracker,2013-01-04 13:32:00,
2013-01-04 08:33:00,30.7,25.0,30.33,WSW,242,2.0,0.0,79,0.00,,,0.00,WeatherTracker,2013-01-04 13:33:00,
2013-01-04 08:36:00,31.0,25.3,30.33,WSW,242,1.0,0.0,79,0.00,,,0.00,WeatherTracker,2013-01-04 13:36:00,
2013-01-04 08:37:00,31.0,25.3,30.33,WSW,242,1.0,0.0,79,0.00,,,0.00,WeatherTracker,2013-01-04 13:37:00,
2013-01-04 08:38:00,31.0,25.3,30.34,WSW,242,1.0,0.0,79,0.00,,,0.00,WeatherTracker,2013-01-04 13:38:00,
2013-01-04 08:41:00,31.2,25.5,30.33,West,259,1.0,0.0,79,0.00,,,0.00,WeatherTracker,2013-01-04 13:41:00,
2013-01-04 08:42:00,31.3,25.6,30.34,West,259,1.0,0.0,79,0.00,,,0.00,WeatherTracker,2013-01-04 13:42:00,
2013-01-04 08:43:00,31.4,25.7,30.34,West,259,1.0,0.0,79,0.00,,,0.00,WeatherTracker,2013-01-04 13:43:00,
2013-01-04 08:46:00,31.6,25.5,30.34,West,259,2.0,0.0,78,0.00,,,0.00,WeatherTracker,2013-01-04 13:46:00,
2013-01-04 08:48:00,31.7,25.6,30.34,West,275,3.0,0.0,78,0.00,,,0.00,WeatherTracker,2013-01-04 13:48:00,
2013-01-04 08:50:00,31.8,25.7,30.34,West,267,3.0,0.0,78,0.00,,,0.00,WeatherTracker,2013-01-04 13:50:00,
2013-01-04 08:52:00,31.9,25.8,30.34,West,267,2.0,0.0,78,0.00,,,0.00,WeatherTracker,2013-01-04 13:52:00,
2013-01-04 08:53:00,32.0,25.9,30.34,West,267,2.0,0.0,78,0.00,,,0.00,WeatherTracker,2013-01-04 13:53:00,
2013-01-04 08:54:00,32.0,25.9,30.34,West,267,2.0,0.0,78,0.00,,,0.00,WeatherTracker,2013-01-04 13:54:00,
2013-01-04 08:55:00,32.1,26.0,30.34,WNW,286,3.0,0.0,78,0.00,,,0.00,WeatherTracker,2013-01-04 13:55:00,
2013-01-04 08:58:00,32.4,26.3,30.33,WSW,250,2.0,0.0,78,0.00,,,0.00,WeatherTracker,2013-01-04 13:58:00,
2013-01-04 08:59:00,32.4,26.0,30.34,West,275,3.0,0.0,77,0.00,,,0.00,WeatherTracker,2013-01-04 13:59:00,
2013-01-04 09:00:00,32.5,26.1,30.34,NW,306,3.0,0.0,77,0.00,,,0.00,WeatherTracker,2013-01-04 14:00:00,
2013-01-04 09:01:00,32.6,26.2,30.34,WNW,289,3.0,0.0,77,0.00,,,0.00,WeatherTracker,2013-01-04 14:01:00,
2013-01-04 09:03:00,32.6,25.9,30.34,WSW,255,6.0,0.0,76,0.00,,,0.00,WeatherTracker,2013-01-04 14:03:00,
2013-01-04 09:04:00,32.7,26.0,30.33,WNW,297,3.0,0.0,76,0.00,,,0.00,WeatherTracker,2013-01-04 14:04:00,
2013-01-04 09:05:00,32.8,26.1,30.33,NW,309,4.0,0.0,76,0.00,,,0.00,WeatherTracker,2013-01-04 14:05:00,
2013-01-04 09:07:00,32.9,25.9,30.34,WNW,294,6.0,0.0,75,0.00,,,0.00,WeatherTracker,2013-01-04 14:07:00,
2013-01-04 09:08:00,33.0,25.6,30.34,WNW,300,3.0,0.0,74,0.00,,,0.00,WeatherTracker,2013-01-04 14:08:00,
2013-01-04 09:09:00,33.1,25.4,30.34,WNW,286,3.0,0.0,73,0.00,,,0.00,WeatherTracker,2013-01-04 14:09:00,
2013-01-04 09:10:00,33.2,25.8,30.34,WNW,282,3.0,0.0,74,0.00,,,0.00,WeatherTracker,2013-01-04 14:10:00,
2013-01-04 09:12:00,33.2,26.2,30.34,WNW,282,3.0,0.0,75,0.00,,,0.00,WeatherTracker,2013-01-04 14:12:00,
2013-01-04 09:13:00,33.2,26.2,30.34,WNW,295,5.0,0.0,75,0.00,,,0.00,WeatherTracker,2013-01-04 14:13:00,
2013-01-04 09:14:00,33.2,26.2,30.34,WNW,297,7.0,0.0,75,0.00,,,0.00,WeatherTracker,2013-01-04 14:14:00,
2013-01-04 09:15:00,33.3,25.9,30.34,West,278,5.0,0.0,74,0.00,,,0.00,WeatherTracker,2013-01-04 14:15:00,
2013-01-04 09:18:00,33.5,25.8,30.34,NNW,334,6.0,0.0,73,0.00,,,0.00,WeatherTracker,2013-01-04 14:18:00,
2013-01-04 09:20:00,33.6,25.9,30.34,West,277,5.0,0.0,73,0.00,,,0.00,WeatherTracker,2013-01-04 14:20:00,
2013-01-04 09:23:00,33.7,25.7,30.34,WNW,294,2.0,0.0,72,0.00,,,0.00,WeatherTracker,2013-01-04 14:23:00,
2013-01-04 09:24:00,33.8,26.4,30.34,WSW,256,3.0,0.0,74,0.00,,,0.00,WeatherTracker,2013-01-04 14:24:00,
2013-01-04 09:25:00,33.8,26.4,30.35,WNW,292,3.0,0.0,74,0.00,,,0.00,WeatherTracker,2013-01-04 14:25:00,
2013-01-04 09:26:00,33.9,26.2,30.34,WNW,283,3.0,0.0,73,0.00,,,0.00,WeatherTracker,2013-01-04 14:26:00,
2013-01-04 09:29:00,34.0,25.9,30.35,WNW,287,8.0,0.0,72,0.00,,,0.00,WeatherTracker,2013-01-04 14:29:00,
2013-01-04 09:30:00,34.1,25.7,30.34,WNW,285,6.0,0.0,71,0.00,,,0.00,WeatherTracker,2013-01-04 14:30:00,
2013-01-04 09:31:00,34.1,25.7,30.35,NW,326,3.0,0.0,71,0.00,,,0.00,WeatherTracker,2013-01-04 14:31:00,
2013-01-04 09:34:00,34.2,25.8,30.35,WNW,289,7.0,0.0,71,0.00,,,0.00,WeatherTracker,2013-01-04 14:34:00,
2013-01-04 09:35:00,34.3,25.5,30.35,NW,309,4.0,0.0,70,0.00,,,0.00,WeatherTracker,2013-01-04 14:35:00,
2013-01-04 09:37:00,34.3,25.9,30.35,WNW,295,3.0,0.0,71,0.00,,,0.00,WeatherTracker,2013-01-04 14:37:00,
2013-01-04 09:39:00,34.5,26.4,30.35,WNW,300,9.0,0.0,72,0.00,,,0.00,WeatherTracker,2013-01-04 14:39:00,
2013-01-04 09:40:00,34.5,26.1,30.35,West,281,5.0,0.0,71,0.00,,,0.00,WeatherTracker,2013-01-04 14:40:00,
2013-01-04 09:42:00,34.7,26.3,30.35,WNW,294,6.0,0.0,71,0.00,,,0.00,WeatherTracker,2013-01-04 14:42:00,
2013-01-04 09:45:00,34.8,26.0,30.35,WNW,293,7.0,0.0,70,0.00,,,0.00,WeatherTracker,2013-01-04 14:45:00,
2013-01-04 09:46:00,34.9,25.8,30.35,WNW,302,3.0,0.0,69,0.00,,,0.00,WeatherTracker,2013-01-04 14:46:00,
2013-01-04 09:48:00,34.9,26.5,30.35,WNW,294,5.0,0.0,71,0.00,,,0.00,WeatherTracker,2013-01-04 14:48:00,
2013-01-04 09:50:00,35.1,26.7,30.35,WNW,295,4.0,0.0,71,0.00,,,0.00,WeatherTracker,2013-01-04 14:50:00,
2013-01-04 09:51:00,35.2,26.8,30.35,WNW,293,8.0,0.0,71,0.00,,,0.00,WeatherTracker,2013-01-04 14:51:00,
2013-01-04 09:53:00,35.2,25.7,30.35,WNW,301,6.0,0.0,68,0.00,,,0.00,WeatherTracker,2013-01-04 14:53:00,
2013-01-04 09:55:00,35.4,25.9,30.35,WNW,292,3.0,0.0,68,0.00,,,0.00,WeatherTracker,2013-01-04 14:55:00,
2013-01-04 09:56:00,35.4,25.9,30.35,WNW,282,5.0,0.0,68,0.00,,,0.00,WeatherTracker,2013-01-04 14:56:00,
2013-01-04 09:58:00,35.5,25.6,30.35,WNW,289,5.0,0.0,67,0.00,,,0.00,WeatherTracker,2013-01-04 14:58:00,
2013-01-04 10:00:00,35.6,26.1,30.35,WNW,295,5.0,0.0,68,0.00,,,0.00,WeatherTracker,2013-01-04 15:00:00,
2013-01-04 10:01:00,35.7,26.2,30.35,WNW,295,7.0,0.0,68,0.00,,,0.00,WeatherTracker,2013-01-04 15:01:00,
2013-01-04 10:02:00,35.8,26.3,30.35,West,277,5.0,0.0,68,0.00,,,0.00,WeatherTracker,2013-01-04 15:02:00,
2013-01-04 10:04:00,35.9,26.4,30.35,WNW,296,6.0,0.0,68,0.00,,,0.00,WeatherTracker,2013-01-04 15:04:00,
2013-01-04 10:05:00,36.1,26.2,30.35,NW,323,5.0,0.0,67,0.00,,,0.00,WeatherTracker,2013-01-04 15:05:00,
2013-01-04 10:06:00,36.1,26.2,30.35,WNW,282,5.0,0.0,67,0.00,,,0.00,WeatherTracker,2013-01-04 15:06:00,
2013-01-04 10:07:00,36.2,26.7,30.36,WSW,257,4.0,0.0,68,0.00,,,0.00,WeatherTracker,2013-01-04 15:07:00,
2013-01-04 10:10:00,36.4,26.1,30.36,NW,321,5.0,0.0,66,0.00,,,0.00,WeatherTracker,2013-01-04 15:10:00,
2013-01-04 10:12:00,36.4,25.4,30.36,WNW,298,10.0,0.0,64,0.00,,,0.00,WeatherTracker,2013-01-04 15:12:00,
2013-01-04 10:13:00,36.4,25.4,30.36,WNW,301,7.0,0.0,64,0.00,,,0.00,WeatherTracker,2013-01-04 15:13:00,
2013-01-04 10:15:00,36.5,25.5,30.36,NW,305,4.0,0.0,64,0.00,,,0.00,WeatherTracker,2013-01-04 15:15:00,
2013-01-04 10:16:00,36.5,26.2,30.36,WNW,282,4.0,0.0,66,0.00,,,0.00,WeatherTracker,2013-01-04 15:16:00,
2013-01-04 10:17:00,36.6,26.3,30.36,NW,321,6.0,0.0,66,0.00,,,0.00,WeatherTracker,2013-01-04 15:17:00,
2013-01-04 10:18:00,36.6,26.3,30.36,West,268,5.0,0.0,66,0.00,,,0.00,WeatherTracker,2013-01-04 15:18:00,
2013-01-04 10:20:00,36.8,26.2,30.36,West,271,3.0,0.0,65,0.00,,,0.00,WeatherTracker,2013-01-04 15:20:00,
2013-01-04 10:21:00,36.9,27.0,30.36,West,265,4.0,0.0,67,0.00,,,0.00,WeatherTracker,2013-01-04 15:21:00,
2013-01-04 10:23:00,37.1,26.8,30.36,West,279,4.0,0.0,66,0.00,,,0.00,WeatherTracker,2013-01-04 15:23:00,
2013-01-04 10:24:00,37.2,26.5,30.36,WNW,288,9.0,0.0,65,0.00,,,0.00,WeatherTracker,2013-01-04 15:24:00,
2013-01-04 10:25:00,37.2,25.8,30.36,WNW,285,6.0,0.0,63,0.00,,,0.00,WeatherTracker,2013-01-04 15:25:00,
2013-01-04 10:27:00,37.3,26.3,30.36,WNW,284,6.0,0.0,64,0.00,,,0.00,WeatherTracker,2013-01-04 15:27:00,
2013-01-04 10:28:00,37.3,26.3,30.36,West,281,6.0,0.0,64,0.00,,,0.00,WeatherTracker,2013-01-04 15:28:00,
2013-01-04 10:29:00,37.3,26.3,30.36,WSW,257,7.0,0.0,64,0.00,,,0.00,WeatherTracker,2013-01-04 15:29:00,
2013-01-04 10:30:00,37.3,25.9,30.36,WNW,298,5.0,0.0,63,0.00,,,0.00,WeatherTracker,2013-01-04 15:30:00,
2013-01-04 10:32:00,37.3,26.3,30.36,West,262,4.0,0.0,64,0.00,,,0.00,WeatherTracker,2013-01-04 15:32:00,
2013-01-04 10:33:00,37.5,26.4,30.36,WSW,240,4.0,0.0,64,0.00,,,0.00,WeatherTracker,2013-01-04 15:33:00,
2013-01-04 10:34:00,37.6,26.2,30.36,West,281,3.0,0.0,63,0.00,,,0.00,WeatherTracker,2013-01-04 15:34:00,
2013-01-04 10:36:00,37.6,26.2,30.36,WNW,298,6.0,0.0,63,0.00,,,0.00,WeatherTracker,2013-01-04 15:36:00,
2013-01-04 10:37:00,37.7,25.9,30.36,West,261,3.0,0.0,62,0.00,,,0.00,WeatherTracker,2013-01-04 15:37:00,
2013-01-04 10:38:00,37.8,26.4,30.36,WNW,285,6.0,0.0,63,0.00,,,0.00,WeatherTracker,2013-01-04 15:38:00,
2013-01-04 10:40:00,37.9,26.4,30.36,West,280,5.0,0.0,63,0.00,,,0.00,WeatherTracker,2013-01-04 15:40:00,
2013-01-04 10:42:00,38.1,27.0,30.36,WSW,255,4.0,0.0,64,0.00,,,0.00,WeatherTracker,2013-01-04 15:42:00,
2013-01-04 10:43:00,38.2,26.0,30.36,NW,308,9.0,0.0,61,0.00,,,0.00,WeatherTracker,2013-01-04 15:43:00,
2013-01-04 10:44:00,38.2,26.0,30.36,WNW,289,7.0,0.0,61,0.00,,,0.00,WeatherTracker,2013-01-04 15:44:00,
2013-01-04 10:45:00,38.2,25.6,30.36,WNW,288,5.0,0.0,60,0.00,,,0.00,WeatherTracker,2013-01-04 15:45:00,
2013-01-04 10:47:00,38.2,26.0,30.36,West,267,5.0,0.0,61,0.00,,,0.00,WeatherTracker,2013-01-04 15:47:00,
2013-01-04 10:49:00,38.3,26.8,30.36,NW,321,10.0,0.0,63,0.00,,,0.00,WeatherTracker,2013-01-04 15:49:00,
2013-01-04 10:50:00,38.3,26.4,30.36,WNW,300,6.0,0.0,62,0.00,,,0.00,WeatherTracker,2013-01-04 15:50:00,
2013-01-04 10:52:00,38.4,26.1,30.36,West,259,7.0,0.0,61,0.00,,,0.00,WeatherTracker,2013-01-04 15:52:00,
2013-01-04 10:54:00,38.4,25.7,30.36,WNW,284,9.0,0.0,60,0.00,,,0.00,WeatherTracker,2013-01-04 15:54:00,
2013-01-04 10:55:00,38.5,25.4,30.36,WNW,300,8.0,0.0,59,0.00,,,0.00,WeatherTracker,2013-01-04 15:55:00,
2013-01-04 10:59:00,38.6,25.9,30.35,WNW,282,6.0,0.0,60,0.00,,,0.00,WeatherTracker,2013-01-04 15:59:00,
2013-01-04 11:00:00,38.6,25.9,30.35,West,269,8.0,0.0,60,0.00,,,0.00,WeatherTracker,2013-01-04 16:00:00,
2013-01-04 11:04:00,38.9,26.2,30.35,WNW,286,12.0,0.0,60,0.00,,,0.00,WeatherTracker,2013-01-04 16:04:00,
2013-01-04 11:05:00,38.9,25.8,30.35,WNW,291,7.0,0.0,59,0.00,,,0.00,WeatherTracker,2013-01-04 16:05:00,
2013-01-04 11:06:00,38.9,25.8,30.35,WNW,286,10.0,0.0,59,0.00,,,0.00,WeatherTracker,2013-01-04 16:06:00,
2013-01-04 11:10:00,39.2,26.1,30.35,WSW,258,6.0,0.0,59,0.00,,,0.00,WeatherTracker,2013-01-04 16:10:00,
2013-01-04 11:11:00,39.4,26.3,30.35,West,263,11.0,0.0,59,0.00,,,0.00,WeatherTracker,2013-01-04 16:11:00,
2013-01-04 11:15:00,39.5,25.5,30.35,WNW,287,5.0,0.0,57,0.00,,,0.00,WeatherTracker,2013-01-04 16:15:00,
2013-01-04 11:16:00,39.6,25.6,30.35,West,264,8.0,0.0,57,0.00,,,0.00,WeatherTracker,2013-01-04 16:16:00,
2013-01-04 11:17:00,39.6,25.6,30.35,WNW,291,6.0,0.0,57,0.00,,,0.00,WeatherTracker,2013-01-04 16:17:00,
2013-01-04 11:20:00,39.5,25.1,30.35,West,278,5.0,0.0,56,0.00,,,0.00,WeatherTracker,2013-01-04 16:20:00,
2013-01-04 11:21:00,39.6,25.6,30.35,WNW,296,9.0,0.0,57,0.00,,,0.00,WeatherTracker,2013-01-04 16:21:00,
2013-01-04 11:22:00,39.6,25.2,30.35,WNW,284,8.0,0.0,56,0.00,,,0.00,WeatherTracker,2013-01-04 16:22:00,
2013-01-04 11:25:00,40.0,25.2,30.34,NW,307,10.0,0.0,55,0.00,,,0.00,WeatherTracker,2013-01-04 16:25:00,
2013-01-04 11:27:00,40.1,25.2,30.34,WNW,296,5.0,0.0,55,0.00,,,0.00,WeatherTracker,2013-01-04 16:27:00,
2013-01-04 11:28:00,40.1,25.2,30.34,West,267,6.0,0.0,55,0.00,,,0.00,WeatherTracker,2013-01-04 16:28:00,
2013-01-04 11:31:00,40.2,24.9,30.34,NW,311,7.0,0.0,54,0.00,,,0.00,WeatherTracker,2013-01-04 16:31:00,
2013-01-04 11:33:00,40.2,24.9,30.34,WNW,288,7.0,0.0,54,0.00,,,0.00,WeatherTracker,2013-01-04 16:33:00,
2013-01-04 11:34:00,40.3,24.5,30.34,West,279,11.0,0.0,53,0.00,,,0.00,WeatherTracker,2013-01-04 16:34:00,
2013-01-04 11:36:00,40.2,24.9,30.33,NW,325,9.0,0.0,54,0.00,,,0.00,WeatherTracker,2013-01-04 16:36:00,
2013-01-04 11:38:00,40.4,25.1,30.33,WNW,283,5.0,0.0,54,0.00,,,0.00,WeatherTracker,2013-01-04 16:38:00,
2013-01-04 11:40:00,40.5,26.1,30.33,WSW,254,5.0,0.0,56,0.00,,,0.00,WeatherTracker,2013-01-04 16:40:00,
2013-01-04 11:41:00,40.7,25.4,30.33,SW,224,5.0,0.0,54,0.00,,,0.00,WeatherTracker,2013-01-04 16:41:00,
2013-01-04 11:43:00,40.8,25.0,30.32,WNW,286,4.0,0.0,53,0.00,,,0.00,WeatherTracker,2013-01-04 16:43:00,
2013-01-04 11:44:00,40.9,25.6,30.32,WSW,255,2.0,0.0,54,0.00,,,0.00,WeatherTracker,2013-01-04 16:44:00,
2013-01-04 11:45:00,41.0,25.6,30.32,WSW,257,2.0,0.0,54,0.00,,,0.00,WeatherTracker,2013-01-04 16:45:00,
2013-01-04 11:48:00,41.5,26.1,30.32,West,260,1.0,0.0,54,0.00,,,0.00,WeatherTracker,2013-01-04 16:48:00,
2013-01-04 11:49:00,41.6,26.2,30.32,WNW,290,4.0,0.0,54,0.00,,,0.00,WeatherTracker,2013-01-04 16:49:00,
2013-01-04 11:50:00,41.6,25.8,30.32,WNW,286,4.0,0.0,53,0.00,,,0.00,WeatherTracker,2013-01-04 16:50:00,
2013-01-04 11:53:00,41.6,25.3,30.31,WNW,288,9.0,0.0,52,0.00,,,0.00,WeatherTracker,2013-01-04 16:53:00,
2013-01-04 11:55:00,41.4,25.1,30.31,NNW,328,5.0,0.0,52,0.00,,,0.00,WeatherTracker,2013-01-04 16:55:00,
2013-01-04 11:59:00,41.3,25.0,30.30,WNW,303,9.0,0.0,52,0.00,,,0.00,WeatherTracker,2013-01-04 16:59:00,
2013-01-04 12:00:00,41.3,25.0,30.30,WNW,296,9.0,0.0,52,0.00,,,0.00,WeatherTracker,2013-01-04 17:00:00,
2013-01-04 12:04:00,41.6,24.8,30.30,WNW,301,5.0,0.0,51,0.00,,,0.00,WeatherTracker,2013-01-04 17:04:00,
2013-01-04 12:05:00,41.8,24.5,30.30,WNW,295,8.0,0.0,50,0.00,,,0.00,WeatherTracker,2013-01-04 17:05:00,
2013-01-04 12:06:00,41.8,24.5,30.30,NW,315,7.0,0.0,50,0.00,,,0.00,WeatherTracker,2013-01-04 17:06:00,
2013-01-04 12:09:00,41.9,24.6,30.30,NW,319,4.0,0.0,50,0.00,,,0.00,WeatherTracker,2013-01-04 17:09:00,
2013-01-04 12:10:00,42.0,25.2,30.30,West,275,5.0,0.0,51,0.00,,,0.00,WeatherTracker,2013-01-04 17:10:00,
2013-01-04 12:11:00,42.2,24.9,30.30,WSW,248,6.0,0.0,50,0.00,,,0.00,WeatherTracker,2013-01-04 17:11:00,
2013-01-04 12:12:00,42.3,25.0,30.30,WNW,286,6.0,0.0,50,0.00,,,0.00,WeatherTracker,2013-01-04 17:12:00,
2013-01-04 12:14:00,42.2,24.4,30.30,West,265,5.0,0.0,49,0.00,,,0.00,WeatherTracker,2013-01-04 17:14:00,
2013-01-04 12:15:00,42.1,24.3,30.30,WSW,241,2.0,0.0,49,0.00,,,0.00,WeatherTracker,2013-01-04 17:15:00,
2013-01-04 12:16:00,42.0,24.7,30.30,NNW,334,4.0,0.0,50,0.00,,,0.00,WeatherTracker,2013-01-04 17:16:00,
2013-01-04 12:18:00,42.3,25.0,30.30,North,355,3.0,0.0,50,0.00,,,0.00,WeatherTracker,2013-01-04 17:18:00,
2013-01-04 12:20:00,42.3,24.0,30.30,North,355,5.0,0.0,48,0.00,,,0.00,WeatherTracker,2013-01-04 17:20:00,
2013-01-04 12:21:00,42.3,24.0,30.30,North,350,3.0,0.0,48,0.00,,,0.00,WeatherTracker,2013-01-04 17:21:00,
2013-01-04 12:22:00,42.4,24.6,30.30,West,270,5.0,0.0,49,0.00,,,0.00,WeatherTracker,2013-01-04 17:22:00,
2013-01-04 12:25:00,42.8,25.0,30.29,NW,309,7.0,0.0,49,0.00,,,0.00,WeatherTracker,2013-01-04 17:25:00,
2013-01-04 12:26:00,42.8,24.0,30.29,West,276,4.0,0.0,47,0.00,,,0.00,WeatherTracker,2013-01-04 17:26:00,
2013-01-04 12:27:00,43.0,24.2,30.29,WNW,291,4.0,0.0,47,0.00,,,0.00,WeatherTracker,2013-01-04 17:27:00,
2013-01-04 12:30:00,43.2,24.3,30.29,WNW,286,2.0,0.0,47,0.00,,,0.00,WeatherTracker,2013-01-04 17:30:00,
2013-01-04 12:31:00,43.3,24.4,30.29,West,274,5.0,0.0,47,0.00,,,0.00,WeatherTracker,2013-01-04 17:31:00,
2013-01-04 12:32:00,43.5,24.6,30.29,WSW,243,5.0,0.0,47,0.00,,,0.00,WeatherTracker,2013-01-04 17:32:00,
2013-01-04 12:35:00,43.7,24.8,30.29,NW,305,8.0,0.0,47,0.00,,,0.00,WeatherTracker,2013-01-04 17:35:00,
2013-01-04 12:36:00,43.6,23.7,30.29,NW,309,3.0,0.0,45,0.00,,,0.00,WeatherTracker,2013-01-04 17:36:00,
2013-01-04 12:37:00,43.4,24.0,30.29,WNW,299,7.0,0.0,46,0.00,,,0.00,WeatherTracker,2013-01-04 17:37:00,
2013-01-04 12:38:00,43.4,24.5,30.29,WNW,284,9.0,0.0,47,0.00,,,0.00,WeatherTracker,2013-01-04 17:38:00,
2013-01-04 12:40:00,43.4,24.0,30.29,WNW,283,9.0,0.0,46,0.00,,,0.00,WeatherTracker,2013-01-04 17:40:00,
2013-01-04 12:42:00,43.4,23.5,30.29,WNW,288,5.0,0.0,45,0.00,,,0.00,WeatherTracker,2013-01-04 17:42:00,
2013-01-04 12:43:00,43.5,24.6,30.29,NW,325,4.0,0.0,47,0.00,,,0.00,WeatherTracker,2013-01-04 17:43:00,
2013-01-04 12:47:00,43.7,24.3,30.28,WSW,250,5.0,0.0,46,0.00,,,0.00,WeatherTracker,2013-01-04 17:47:00,
2013-01-04 12:48:00,43.9,24.5,30.28,WSW,247,4.0,0.0,46,0.00,,,0.00,WeatherTracker,2013-01-04 17:48:00,
2013-01-04 12:49:00,44.0,24.0,30.28,NW,311,4.0,0.0,45,0.00,,,0.00,WeatherTracker,2013-01-04 17:49:00,
2013-01-04 12:52:00,44.2,24.2,30.28,WSW,248,5.0,0.0,45,0.00,,,0.00,WeatherTracker,2013-01-04 17:52:00,
2013-01-04 12:53:00,44.5,25.0,30.28,WNW,294,4.0,0.0,46,0.00,,,0.00,WeatherTracker,2013-01-04 17:53:00,
2013-01-04 12:54:00,44.7,24.7,30.28,WSW,254,3.0,0.0,45,0.00,,,0.00,WeatherTracker,2013-01-04 17:54:00,
2013-01-04 12:57:00,44.7,23.6,30.28,NNW,333,8.0,0.0,43,0.00,,,0.00,WeatherTracker,2013-01-04 17:57:00,
2013-01-04 12:58:00,44.5,23.4,30.27,WNW,301,9.0,0.0,43,0.00,,,0.00,WeatherTracker,2013-01-04 17:58:00,
2013-01-04 13:00:00,44.3,23.2,30.27,West,263,5.0,0.0,43,0.00,,,0.00,WeatherTracker,2013-01-04 18:00:00,
2013-01-04 13:03:00,44.0,23.5,30.27,WNW,286,5.0,0.0,44,0.00,,,0.00,WeatherTracker,2013-01-04 18:03:00,
2013-01-04 13:04:00,44.0,23.5,30.27,NW,307,2.0,0.0,44,0.00,,,0.00,WeatherTracker,2013-01-04 18:04:00,
2013-01-04 13:05:00,44.2,24.2,30.27,West,263,3.0,0.0,45,0.00,,,0.00,WeatherTracker,2013-01-04 18:05:00,
2013-01-04 13:08:00,44.5,24.0,30.27,WNW,303,3.0,0.0,44,0.00,,,0.00,WeatherTracker,2013-01-04 18:08:00,
2013-01-04 13:09:00,44.7,24.7,30.27,SSW,210,6.0,0.0,45,0.00,,,0.00,WeatherTracker,2013-01-04 18:09:00,
2013-01-04 13:11:00,44.9,24.9,30.27,WNW,298,12.0,0.0,45,0.00,,,0.00,WeatherTracker,2013-01-04 18:11:00,
2013-01-04 13:13:00,44.8,23.7,30.27,WNW,293,4.0,0.0,43,0.00,,,0.00,WeatherTracker,2013-01-04 18:13:00,
2013-01-04 13:15:00,44.6,23.5,30.27,WNW,288,3.0,0.0,43,0.00,,,0.00,WeatherTracker,2013-01-04 18:15:00,
2013-01-04 13:16:00,44.8,24.8,30.27,WSW,258,2.0,0.0,45,0.00,,,0.00,WeatherTracker,2013-01-04 18:16:00,
2013-01-04 13:18:00,45.2,24.0,30.27,West,275,3.0,0.0,43,0.00,,,0.00,WeatherTracker,2013-01-04 18:18:00,
2013-01-04 13:19:00,45.2,24.0,30.27,West,264,1.0,0.0,43,0.00,,,0.00,WeatherTracker,2013-01-04 18:19:00,
2013-01-04 13:21:00,45.4,23.7,30.27,WNW,298,5.0,0.0,42,0.00,,,0.00,WeatherTracker,2013-01-04 18:21:00,
2013-01-04 13:23:00,45.4,24.8,30.27,NW,311,6.0,0.0,44,0.00,,,0.00,WeatherTracker,2013-01-04 18:23:00,
2013-01-04 13:24:00,45.3,24.1,30.27,NW,321,7.0,0.0,43,0.00,,,0.00,WeatherTracker,2013-01-04 18:24:00,
2013-01-04 13:26:00,45.0,23.3,30.27,WNW,290,2.0,0.0,42,0.00,,,0.00,WeatherTracker,2013-01-04 18:26:00,
2013-01-04 13:27:00,44.9,23.2,30.27,WNW,301,3.0,0.0,42,0.00,,,0.00,WeatherTracker,2013-01-04 18:27:00,
2013-01-04 13:28:00,44.9,23.8,30.27,West,263,6.0,0.0,43,0.00,,,0.00,WeatherTracker,2013-01-04 18:28:00,
2013-01-04 13:29:00,45.0,24.4,30.26,West,270,7.0,0.0,44,0.00,,,0.00,WeatherTracker,2013-01-04 18:29:00,
2013-01-04 13:32:00,45.3,24.7,30.26,SW,216,7.0,0.0,44,0.00,,,0.00,WeatherTracker,2013-01-04 18:32:00,
2013-01-04 13:33:00,45.5,23.8,30.26,SW,233,8.0,0.0,42,0.00,,,0.00,WeatherTracker,2013-01-04 18:33:00,
2013-01-04 13:34:00,45.4,23.1,30.26,SW,232,4.0,0.0,41,0.00,,,0.00,WeatherTracker,2013-01-04 18:34:00,
2013-01-04 13:37:00,45.4,23.1,30.26,West,259,4.0,0.0,41,0.00,,,0.00,WeatherTracker,2013-01-04 18:37:00,
2013-01-04 13:38:00,45.4,23.1,30.26,WSW,250,3.0,0.0,41,0.00,,,0.00,WeatherTracker,2013-01-04 18:38:00,
2013-01-04 13:39:00,45.4,23.1,30.25,WSW,249,5.0,0.0,41,0.00,,,0.00,WeatherTracker,2013-01-04 18:39:00,
2013-01-04 13:40:00,45.4,23.7,30.26,West,263,3.0,0.0,42,0.00,,,0.00,WeatherTracker,2013-01-04 18:40:00,
2013-01-04 13:42:00,45.5,23.8,30.25,West,277,3.0,0.0,42,0.00,,,0.00,WeatherTracker,2013-01-04 18:42:00,
2013-01-04 13:43:00,45.6,23.8,30.25,WNW,288,4.0,0.0,42,0.00,,,0.00,WeatherTracker,2013-01-04 18:43:00,
2013-01-04 13:44:00,45.8,24.0,30.25,NNW,333,4.0,0.0,42,0.00,,,0.00,WeatherTracker,2013-01-04 18:44:00,
2013-01-04 13:45:00,45.8,24.0,30.25,WNW,297,8.0,0.0,42,0.00,,,0.00,WeatherTracker,2013-01-04 18:45:00,
2013-01-04 13:47:00,46.0,24.2,30.25,SW,226,2.0,0.0,42,0.00,,,0.00,WeatherTracker,2013-01-04 18:47:00,
2013-01-04 13:48:00,46.1,24.3,30.25,West,279,4.0,0.0,42,0.00,,,0.00,WeatherTracker,2013-01-04 18:48:00,
2013-01-04 13:50:00,46.3,23.9,30.25,NW,305,5.0,0.0,41,0.00,,,0.00,WeatherTracker,2013-01-04 18:50:00,
2013-01-04 13:52:00,46.2,23.2,30.25,WNW,288,6.0,0.0,40,0.00,,,0.00,WeatherTracker,2013-01-04 18:52:00,
2013-01-04 13:53:00,46.2,23.2,30.25,WSW,240,4.0,0.0,40,0.00,,,0.00,WeatherTracker,2013-01-04 18:53:00,
2013-01-04 13:55:00,46.3,23.9,30.25,SW,236,6.0,0.0,41,0.00,,,0.00,WeatherTracker,2013-01-04 18:55:00,
2013-01-04 13:58:00,46.3,22.7,30.25,West,261,7.0,0.0,39,0.00,,,0.00,WeatherTracker,2013-01-04 18:58:00,
2013-01-04 14:00:00,46.3,22.7,30.25,WSW,257,7.0,0.0,39,0.00,,,0.00,WeatherTracker,2013-01-04 19:00:00,
2013-01-04 14:03:00,46.2,22.6,30.25,WNW,300,6.0,0.0,39,0.00,,,0.00,WeatherTracker,2013-01-04 19:03:00,
2013-01-04 14:04:00,46.2,23.2,30.25,West,280,5.0,0.0,40,0.00,,,0.00,WeatherTracker,2013-01-04 19:04:00,
2013-01-04 14:05:00,46.4,24.0,30.25,West,266,3.0,0.0,41,0.00,,,0.00,WeatherTracker,2013-01-04 19:05:00,
2013-01-04 14:06:00,46.5,24.1,30.25,NW,306,3.0,0.0,41,0.00,,,0.00,WeatherTracker,2013-01-04 19:06:00,
2013-01-04 14:08:00,46.8,23.8,30.25,West,261,6.0,0.0,40,0.00,,,0.00,WeatherTracker,2013-01-04 19:08:00,
2013-01-04 14:10:00,46.8,23.8,30.25,WSW,250,4.0,0.0,40,0.00,,,0.00,WeatherTracker,2013-01-04 19:10:00,
2013-01-04 14:11:00,46.8,23.8,30.25,West,279,6.0,0.0,40,0.00,,,0.00,WeatherTracker,2013-01-04 19:11:00,
2013-01-04 14:13:00,46.7,23.1,30.25,WNW,286,11.0,0.0,39,0.00,,,0.00,WeatherTracker,2013-01-04 19:13:00,
2013-01-04 14:16:00,46.4,22.8,30.25,West,259,6.0,0.0,39,0.00,,,0.00,WeatherTracker,2013-01-04 19:16:00,
2013-01-04 14:17:00,46.4,22.8,30.25,West,265,5.0,0.0,39,0.00,,,0.00,WeatherTracker,2013-01-04 19:17:00,
2013-01-04 14:18:00,46.4,23.4,30.25,West,260,6.0,0.0,40,0.00,,,0.00,WeatherTracker,2013-01-04 19:18:00,
2013-01-04 14:19:00,46.5,23.5,30.25,WNW,303,4.0,0.0,40,0.00,,,0.00,WeatherTracker,2013-01-04 19:19:00,
2013-01-04 14:21:00,46.5,22.9,30.25,West,281,3.0,0.0,39,0.00,,,0.00,WeatherTracker,2013-01-04 19:21:00,
2013-01-04 14:22:00,46.5,22.9,30.25,West,278,3.0,0.0,39,0.00,,,0.00,WeatherTracker,2013-01-04 19:22:00,
2013-01-04 14:23:00,46.5,22.9,30.24,West,280,6.0,0.0,39,0.00,,,0.00,WeatherTracker,2013-01-04 19:23:00,
2013-01-04 14:24:00,46.5,22.9,30.24,NW,304,5.0,0.0,39,0.00,,,0.00,WeatherTracker,2013-01-04 19:24:00,
2013-01-04 14:27:00,46.5,22.9,30.24,NW,306,4.0,0.0,39,0.00,,,0.00,WeatherTracker,2013-01-04 19:27:00,
2013-01-04 14:28:00,46.5,23.5,30.24,West,275,4.0,0.0,40,0.00,,,0.00,WeatherTracker,2013-01-04 19:28:00,
2013-01-04 14:29:00,46.8,24.4,30.24,WNW,289,6.0,0.0,41,0.00,,,0.00,WeatherTracker,2013-01-04 19:29:00,
2013-01-04 14:32:00,46.8,23.8,30.24,NW,310,3.0,0.0,40,0.00,,,0.00,WeatherTracker,2013-01-04 19:32:00,
2013-01-04 14:33:00,46.9,24.4,30.24,WNW,296,6.0,0.0,41,0.00,,,0.00,WeatherTracker,2013-01-04 19:33:00,
2013-01-04 14:34:00,46.9,23.9,30.24,SW,236,3.0,0.0,40,0.00,,,0.00,WeatherTracker,2013-01-04 19:34:00,
2013-01-04 14:37:00,46.8,23.2,30.24,NW,305,6.0,0.0,39,0.00,,,0.00,WeatherTracker,2013-01-04 19:37:00,
2013-01-04 14:39:00,46.9,23.3,30.24,WNW,283,4.0,0.0,39,0.00,,,0.00,WeatherTracker,2013-01-04 19:39:00,
2013-01-04 14:40:00,46.9,23.3,30.24,WNW,292,6.0,0.0,39,0.00,,,0.00,WeatherTracker,2013-01-04 19:40:00,
2013-01-04 14:41:00,46.8,23.2,30.24,WNW,287,7.0,0.0,39,0.00,,,0.00,WeatherTracker,2013-01-04 19:41:00,
2013-01-04 14:43:00,46.8,23.2,30.24,WNW,291,4.0,0.0,39,0.00,,,0.00,WeatherTracker,2013-01-04 19:43:00,
2013-01-04 14:45:00,47.2,24.1,30.24,WNW,298,7.0,0.0,40,0.00,,,0.00,WeatherTracker,2013-01-04 19:45:00,
2013-01-04 14:46:00,47.2,23.5,30.24,West,265,6.0,0.0,39,0.00,,,0.00,WeatherTracker,2013-01-04 19:46:00,
2013-01-04 14:48:00,47.3,23.6,30.24,WNW,283,7.0,0.0,39,0.00,,,0.00,WeatherTracker,2013-01-04 19:48:00,
2013-01-04 14:50:00,47.2,24.1,30.23,NW,326,6.0,0.0,40,0.00,,,0.00,WeatherTracker,2013-01-04 19:50:00,
2013-01-04 14:51:00,47.2,24.1,30.24,WNW,300,6.0,0.0,40,0.00,,,0.00,WeatherTracker,2013-01-04 19:51:00,
2013-01-04 14:54:00,47.2,23.5,30.24,NW,326,2.0,0.0,39,0.00,,,0.00,WeatherTracker,2013-01-04 19:54:00,
2013-01-04 14:55:00,47.3,23.6,30.23,West,280,2.0,0.0,39,0.00,,,0.00,WeatherTracker,2013-01-04 19:55:00,
2013-01-04 14:56:00,47.4,23.7,30.23,West,265,3.0,0.0,39,0.00,,,0.00,WeatherTracker,2013-01-04 19:56:00,
2013-01-04 14:57:00,47.4,24.3,30.23,WSW,247,6.0,0.0,40,0.00,,,0.00,WeatherTracker,2013-01-04 19:57:00,
2013-01-04 15:00:00,47.8,24.1,30.23,WNW,290,4.0,0.0,39,0.00,,,0.00,WeatherTracker,2013-01-04 20:00:00,
2013-01-04 15:01:00,47.7,23.4,30.23,WSW,257,4.0,0.0,38,0.00,,,0.00,WeatherTracker,2013-01-04 20:01:00,
2013-01-04 15:04:00,47.8,23.4,30.23,WSW,256,6.0,0.0,38,0.00,,,0.00,WeatherTracker,2013-01-04 20:04:00,
2013-01-04 15:05:00,47.8,22.8,30.23,WSW,251,4.0,0.0,37,0.00,,,0.00,WeatherTracker,2013-01-04 20:05:00,
2013-01-04 15:07:00,47.8,23.4,30.23,NW,322,6.0,0.0,38,0.00,,,0.00,WeatherTracker,2013-01-04 20:07:00,
2013-01-04 15:09:00,47.7,23.4,30.23,WNW,284,5.0,0.0,38,0.00,,,0.00,WeatherTracker,2013-01-04 20:09:00,
2013-01-04 15:10:00,47.6,23.3,30.23,NNW,332,3.0,0.0,38,0.00,,,0.00,WeatherTracker,2013-01-04 20:10:00,
2013-01-04 15:12:00,47.5,23.2,30.23,WNW,285,4.0,0.0,38,0.00,,,0.00,WeatherTracker,2013-01-04 20:12:00,
2013-01-04 15:14:00,47.6,23.3,30.23,SW,232,3.0,0.0,38,0.00,,,0.00,WeatherTracker,2013-01-04 20:14:00,
2013-01-04 15:17:00,47.7,23.4,30.23,WNW,283,3.0,0.0,38,0.00,,,0.00,WeatherTracker,2013-01-04 20:17:00,
2013-01-04 15:18:00,47.8,24.1,30.23,NW,325,2.0,0.0,39,0.00,,,0.00,WeatherTracker,2013-01-04 20:18:00,
2013-01-04 15:20:00,47.9,23.5,30.23,WNW,288,7.0,0.0,38,0.00,,,0.00,WeatherTracker,2013-01-04 20:20:00,
2013-01-04 15:22:00,47.9,23.5,30.23,WNW,291,4.0,0.0,38,0.00,,,0.00,WeatherTracker,2013-01-04 20:22:00,
2013-01-04 15:23:00,47.9,23.5,30.23,WNW,298,4.0,0.0,38,0.00,,,0.00,WeatherTracker,2013-01-04 20:23:00,
2013-01-04 15:25:00,47.8,23.4,30.23,WNW,301,5.0,0.0,38,0.00,,,0.00,WeatherTracker,2013-01-04 20:25:00,
2013-01-04 15:27:00,47.8,22.8,30.23,SW,235,3.0,0.0,37,0.00,,,0.00,WeatherTracker,2013-01-04 20:27:00,
2013-01-04 15:29:00,47.8,23.4,30.23,West,266,4.0,0.0,38,0.00,,,0.00,WeatherTracker,2013-01-04 20:29:00,
2013-01-04 15:31:00,48.0,22.3,30.23,WNW,297,5.0,0.0,36,0.00,,,0.00,WeatherTracker,2013-01-04 20:31:00,
2013-01-04 15:33:00,48.1,23.7,30.24,WNW,298,3.0,0.0,38,0.00,,,0.00,WeatherTracker,2013-01-04 20:33:00,
2013-01-04 15:34:00,48.1,23.1,30.24,WSW,238,3.0,0.0,37,0.00,,,0.00,WeatherTracker,2013-01-04 20:34:00,
2013-01-04 15:37:00,48.2,23.2,30.24,WSW,246,3.0,0.0,37,0.00,,,0.00,WeatherTracker,2013-01-04 20:37:00,
2013-01-04 15:39:00,48.1,23.7,30.24,West,267,3.0,0.0,38,0.00,,,0.00,WeatherTracker,2013-01-04 20:39:00,
2013-01-04 15:40:00,48.1,23.7,30.24,NW,311,2.0,0.0,38,0.00,,,0.00,WeatherTracker,2013-01-04 20:40:00,
2013-01-04 15:41:00,48.2,23.8,30.24,WNW,290,5.0,0.0,38,0.00,,,0.00,WeatherTracker,2013-01-04 20:41:00,
2013-01-04 15:42:00,48.2,23.2,30.24,WNW,298,4.0,0.0,37,0.00,,,0.00,WeatherTracker,2013-01-04 20:42:00,
2013-01-04 15:45:00,48.0,23.0,30.24,WNW,291,2.0,0.0,37,0.00,,,0.00,WeatherTracker,2013-01-04 20:45:00,
2013-01-04 15:46:00,47.9,23.5,30.24,WNW,294,2.0,0.0,38,0.00,,,0.00,WeatherTracker,2013-01-04 20:46:00,
2013-01-04 15:47:00,47.9,24.1,30.24,WNW,302,5.0,0.0,39,0.00,,,0.00,WeatherTracker,2013-01-04 20:47:00,
2013-01-04 15:50:00,47.8,23.4,30.24,WNW,302,3.0,0.0,38,0.00,,,0.00,WeatherTracker,2013-01-04 20:50:00,
2013-01-04 15:51:00,47.9,23.5,30.24,NW,317,4.0,0.0,38,0.00,,,0.00,WeatherTracker,2013-01-04 20:51:00,
2013-01-04 15:52:00,47.9,23.5,30.24,NW,315,3.0,0.0,38,0.00,,,0.00,WeatherTracker,2013-01-04 20:52:00,
2013-01-04 15:55:00,47.9,22.9,30.24,WSW,248,5.0,0.0,37,0.00,,,0.00,WeatherTracker,2013-01-04 20:55:00,
2013-01-04 15:56:00,47.9,22.9,30.24,WNW,300,3.0,0.0,37,0.00,,,0.00,WeatherTracker,2013-01-04 20:56:00,
2013-01-04 15:57:00,47.9,22.9,30.24,WNW,282,2.0,0.0,37,0.00,,,0.00,WeatherTracker,2013-01-04 20:57:00,
2013-01-04 16:01:00,48.1,23.1,30.24,WNW,294,5.0,0.0,37,0.00,,,0.00,WeatherTracker,2013-01-04 21:01:00,
2013-01-04 16:02:00,48.1,22.4,30.24,WNW,296,3.0,0.0,36,0.00,,,0.00,WeatherTracker,2013-01-04 21:02:00,
2013-01-04 16:06:00,48.4,23.3,30.24,WSW,257,2.0,0.0,37,0.00,,,0.00,WeatherTracker,2013-01-04 21:06:00,
2013-01-04 16:07:00,48.5,23.4,30.24,West,259,3.0,0.0,37,0.00,,,0.00,WeatherTracker,2013-01-04 21:07:00,
2013-01-04 16:08:00,48.6,23.5,30.24,West,265,2.0,0.0,37,0.00,,,0.00,WeatherTracker,2013-01-04 21:08:00,
2013-01-04 16:11:00,48.7,23.6,30.25,NW,309,4.0,0.0,37,0.00,,,0.00,WeatherTracker,2013-01-04 21:11:00,
2013-01-04 16:12:00,48.7,23.6,30.25,NW,307,4.0,0.0,37,0.00,,,0.00,WeatherTracker,2013-01-04 21:12:00,
2013-01-04 16:13:00,48.6,23.5,30.24,WNW,303,6.0,0.0,37,0.00,,,0.00,WeatherTracker,2013-01-04 21:13:00,
2013-01-04 16:17:00,48.5,23.4,30.25,WSW,245,4.0,0.0,37,0.00,,,0.00,WeatherTracker,2013-01-04 21:17:00,
2013-01-04 16:18:00,48.5,23.4,30.25,West,265,5.0,0.0,37,0.00,,,0.00,WeatherTracker,2013-01-04 21:18:00,
2013-01-04 16:19:00,48.5,22.8,30.25,West,265,5.0,0.0,36,0.00,,,0.00,WeatherTracker,2013-01-04 21:19:00,
2013-01-04 16:22:00,48.4,22.7,30.25,NW,309,5.0,0.0,36,0.00,,,0.00,WeatherTracker,2013-01-04 21:22:00,
2013-01-04 16:23:00,48.4,22.7,30.25,West,271,5.0,0.0,36,0.00,,,0.00,WeatherTracker,2013-01-04 21:23:00,
2013-01-04 16:25:00,48.3,22.6,30.24,WSW,237,4.0,0.0,36,0.00,,,0.00,WeatherTracker,2013-01-04 21:25:00,
2013-01-04 16:27:00,48.3,22.6,30.24,West,263,2.0,0.0,36,0.00,,,0.00,WeatherTracker,2013-01-04 21:27:00,
2013-01-04 16:28:00,48.3,22.6,30.24,NW,304,4.0,0.0,36,0.00,,,0.00,WeatherTracker,2013-01-04 21:28:00,
2013-01-04 16:29:00,48.3,23.3,30.24,WNW,282,4.0,0.0,37,0.00,,,0.00,WeatherTracker,2013-01-04 21:29:00,
2013-01-04 16:30:00,48.2,22.5,30.24,West,273,7.0,0.0,36,0.00,,,0.00,WeatherTracker,2013-01-04 21:30:00,
2013-01-04 16:33:00,48.2,21.8,30.24,WSW,246,5.0,0.0,35,0.00,,,0.00,WeatherTracker,2013-01-04 21:33:00,
2013-01-04 16:34:00,48.2,22.5,30.25,WNW,288,7.0,0.0,36,0.00,,,0.00,WeatherTracker,2013-01-04 21:34:00,
2013-01-04 16:35:00,48.2,22.5,30.24,West,281,5.0,0.0,36,0.00,,,0.00,WeatherTracker,2013-01-04 21:35:00,
2013-01-04 16:38:00,48.1,22.4,30.24,WSW,243,4.0,0.0,36,0.00,,,0.00,WeatherTracker,2013-01-04 21:38:00,
2013-01-04 16:40:00,48.0,22.3,30.24,West,271,3.0,0.0,36,0.00,,,0.00,WeatherTracker,2013-01-04 21:40:00,
2013-01-04 16:44:00,47.8,22.2,30.24,WNW,302,3.0,0.0,36,0.00,,,0.00,WeatherTracker,2013-01-04 21:44:00,
2013-01-04 16:45:00,47.8,22.2,30.24,NW,306,2.0,0.0,36,0.00,,,0.00,WeatherTracker,2013-01-04 21:45:00,
2013-01-04 16:49:00,47.6,22.6,30.24,WNW,296,3.0,0.0,37,0.00,,,0.00,WeatherTracker,2013-01-04 21:49:00,
2013-01-04 16:50:00,47.6,22.0,30.24,NW,304,3.0,0.0,36,0.00,,,0.00,WeatherTracker,2013-01-04 21:50:00,
2013-01-04 16:51:00,47.5,23.2,30.24,WNW,295,7.0,0.0,38,0.00,,,0.00,WeatherTracker,2013-01-04 21:51:00,
2013-01-04 16:54:00,47.5,22.5,30.24,West,265,4.0,0.0,37,0.00,,,0.00,WeatherTracker,2013-01-04 21:54:00,
2013-01-04 16:55:00,47.4,22.4,30.24,WNW,285,4.0,0.0,37,0.00,,,0.00,WeatherTracker,2013-01-04 21:55:00,
2013-01-04 16:56:00,47.4,23.1,30.24,WNW,295,5.0,0.0,38,0.00,,,0.00,WeatherTracker,2013-01-04 21:56:00,
2013-01-04 16:59:00,47.3,23.0,30.24,NW,304,4.0,0.0,38,0.00,,,0.00,WeatherTracker,2013-01-04 21:59:00,
2013-01-04 17:00:00,47.3,22.4,30.24,West,259,3.0,0.0,37,0.00,,,0.00,WeatherTracker,2013-01-04 22:00:00,
2013-01-04 17:01:00,47.3,22.4,30.24,NW,313,3.0,0.0,37,0.00,,,0.00,WeatherTracker,2013-01-04 22:01:00,
2013-01-04 17:02:00,47.3,23.0,30.24,WNW,285,2.0,0.0,38,0.00,,,0.00,WeatherTracker,2013-01-04 22:02:00,
2013-01-04 17:05:00,47.2,22.9,30.24,NW,306,3.0,0.0,38,0.00,,,0.00,WeatherTracker,2013-01-04 22:05:00,
2013-01-04 17:06:00,47.2,22.9,30.24,West,261,3.0,0.0,38,0.00,,,0.00,WeatherTracker,2013-01-04 22:06:00,
2013-01-04 17:07:00,47.2,22.9,30.24,West,261,1.0,0.0,38,0.00,,,0.00,WeatherTracker,2013-01-04 22:07:00,
2013-01-04 17:11:00,47.0,22.7,30.24,WNW,285,1.0,0.0,38,0.00,,,0.00,WeatherTracker,2013-01-04 22:11:00,
2013-01-04 17:12:00,47.0,22.7,30.24,WSW,257,4.0,0.0,38,0.00,,,0.00,WeatherTracker,2013-01-04 22:12:00,
2013-01-04 17:14:00,47.0,22.7,30.24,West,272,0.0,0.0,38,0.00,,,0.00,WeatherTracker,2013-01-04 22:14:00,
2013-01-04 17:16:00,46.9,23.3,30.24,West,272,2.0,0.0,39,0.00,,,0.00,WeatherTracker,2013-01-04 22:16:00,
2013-01-04 17:17:00,46.8,23.2,30.24,West,272,3.0,0.0,39,0.00,,,0.00,WeatherTracker,2013-01-04 22:17:00,
2013-01-04 17:19:00,46.8,22.5,30.24,WNW,295,4.0,0.0,38,0.00,,,0.00,WeatherTracker,2013-01-04 22:19:00,
2013-01-04 17:21:00,46.8,22.5,30.24,WNW,283,2.0,0.0,38,0.00,,,0.00,WeatherTracker,2013-01-04 22:21:00,
2013-01-04 17:23:00,46.8,23.2,30.24,WNW,283,1.0,0.0,39,0.00,,,0.00,WeatherTracker,2013-01-04 22:23:00,
2013-01-04 17:26:00,46.7,23.1,30.24,WNW,283,2.0,0.0,39,0.00,,,0.00,WeatherTracker,2013-01-04 22:26:00,
2013-01-04 17:28:00,46.7,23.1,30.24,WNW,303,3.0,0.0,39,0.00,,,0.00,WeatherTracker,2013-01-04 22:28:00,
2013-01-04 17:31:00,46.6,23.0,30.24,WNW,300,3.0,0.0,39,0.00,,,0.00,WeatherTracker,2013-01-04 22:31:00,
2013-01-04 17:32:00,46.6,23.0,30.24,WNW,297,3.0,0.0,39,0.00,,,0.00,WeatherTracker,2013-01-04 22:32:00,
2013-01-04 17:33:00,46.6,23.0,30.24,WNW,297,1.0,0.0,39,0.00,,,0.00,WeatherTracker,2013-01-04 22:33:00,
2013-01-04 17:36:00,46.5,22.9,30.24,WNW,292,1.0,0.0,39,0.00,,,0.00,WeatherTracker,2013-01-04 22:36:00,
2013-01-04 17:37:00,46.5,22.9,30.24,WNW,292,1.0,0.0,39,0.00,,,0.00,WeatherTracker,2013-01-04 22:37:00,
2013-01-04 17:40:00,46.5,22.9,30.24,WNW,292,1.0,0.0,39,0.00,,,0.00,WeatherTracker,2013-01-04 22:40:00,
2013-01-04 17:42:00,46.4,23.4,30.25,WNW,292,2.0,0.0,40,0.00,,,0.00,WeatherTracker,2013-01-04 22:42:00,
2013-01-04 17:45:00,46.3,23.3,30.25,WNW,292,1.0,0.0,40,0.00,,,0.00,WeatherTracker,2013-01-04 22:45:00,
2013-01-04 17:47:00,46.2,23.8,30.25,WNW,292,1.0,0.0,41,0.00,,,0.00,WeatherTracker,2013-01-04 22:47:00,
2013-01-04 17:49:00,46.2,23.8,30.25,WNW,292,1.0,0.0,41,0.00,,,0.00,WeatherTracker,2013-01-04 22:49:00,
2013-01-04 17:51:00,46.1,23.7,30.25,West,275,1.0,0.0,41,0.00,,,0.00,WeatherTracker,2013-01-04 22:51:00,
2013-01-04 17:52:00,46.1,23.1,30.25,West,259,4.0,0.0,40,0.00,,,0.00,WeatherTracker,2013-01-04 22:52:00,
2013-01-04 17:54:00,46.1,23.7,30.25,NW,306,5.0,0.0,41,0.00,,,0.00,WeatherTracker,2013-01-04 22:54:00,
2013-01-04 17:57:00,46.1,23.7,30.25,WNW,291,2.0,0.0,41,0.00,,,0.00,WeatherTracker,2013-01-04 22:57:00,
2013-01-04 17:58:00,46.0,23.6,30.25,WNW,291,3.0,0.0,41,0.00,,,0.00,WeatherTracker,2013-01-04 22:58:00,
2013-01-04 18:00:00,46.0,23.6,30.26,West,271,2.0,0.0,41,0.00,,,0.00,WeatherTracker,2013-01-04 23:00:00,
2013-01-04 18:03:00,45.9,23.5,30.26,WSW,237,2.0,0.0,41,0.00,,,0.00,WeatherTracker,2013-01-04 23:03:00,
2013-01-04 18:04:00,45.9,23.5,30.26,WSW,238,2.0,0.0,41,0.00,,,0.00,WeatherTracker,2013-01-04 23:04:00,
2013-01-04 18:06:00,45.9,23.0,30.26,WSW,238,3.0,0.0,40,0.00,,,0.00,WeatherTracker,2013-01-04 23:06:00,
2013-01-04 18:08:00,45.9,23.5,30.26,WSW,238,2.0,0.0,41,0.00,,,0.00,WeatherTracker,2013-01-04 23:08:00,
2013-01-04 18:09:00,45.9,23.5,30.26,WSW,238,3.0,0.0,41,0.00,,,0.00,WeatherTracker,2013-01-04 23:09:00,
2013-01-04 18:11:00,45.9,23.0,30.26,WSW,255,2.0,0.0,40,0.00,,,0.00,WeatherTracker,2013-01-04 23:11:00,
2013-01-04 18:13:00,45.9,23.5,30.27,WSW,255,4.0,0.0,41,0.00,,,0.00,WeatherTracker,2013-01-04 23:13:00,
2013-01-04 18:14:00,45.9,23.5,30.27,West,267,2.0,0.0,41,0.00,,,0.00,WeatherTracker,2013-01-04 23:14:00,
2013-01-04 18:17:00,45.9,23.5,30.27,West,275,4.0,0.0,41,0.00,,,0.00,WeatherTracker,2013-01-04 23:17:00,
2013-01-04 18:19:00,45.8,23.5,30.26,West,274,2.0,0.0,41,0.00,,,0.00,WeatherTracker,2013-01-04 23:19:00,
2013-01-04 18:20:00,45.8,23.5,30.27,West,275,2.0,0.0,41,0.00,,,0.00,WeatherTracker,2013-01-04 23:20:00,
2013-01-04 18:22:00,45.8,23.5,30.27,West,261,4.0,0.0,41,0.00,,,0.00,WeatherTracker,2013-01-04 23:22:00,
2013-01-04 18:24:00,45.8,23.5,30.27,NW,311,5.0,0.0,41,0.00,,,0.00,WeatherTracker,2013-01-04 23:24:00,
2013-01-04 18:25:00,45.8,23.5,30.27,West,281,3.0,0.0,41,0.00,,,0.00,WeatherTracker,2013-01-04 23:25:00,
2013-01-04 18:29:00,45.8,24.0,30.27,WNW,285,6.0,0.0,42,0.00,,,0.00,WeatherTracker,2013-01-04 23:29:00,
2013-01-04 18:30:00,45.8,24.0,30.27,WNW,288,8.0,0.0,42,0.00,,,0.00,WeatherTracker,2013-01-04 23:30:00,
2013-01-04 18:31:00,45.8,23.5,30.27,WSW,256,11.0,0.0,41,0.00,,,0.00,WeatherTracker,2013-01-04 23:31:00,
2013-01-04 18:34:00,45.9,23.0,30.27,WNW,290,9.0,0.0,40,0.00,,,0.00,WeatherTracker,2013-01-04 23:34:00,
2013-01-04 18:35:00,45.9,22.4,30.27,West,278,12.0,0.0,39,0.00,,,0.00,WeatherTracker,2013-01-04 23:35:00,
2013-01-04 18:37:00,45.9,22.4,30.27,WNW,290,5.0,0.0,39,0.00,,,0.00,WeatherTracker,2013-01-04 23:37:00,
2013-01-04 18:39:00,45.9,23.0,30.27,NNW,336,4.0,0.0,40,0.00,,,0.00,WeatherTracker,2013-01-04 23:39:00,
2013-01-04 18:40:00,45.9,23.0,30.27,NW,304,5.0,0.0,40,0.00,,,0.00,WeatherTracker,2013-01-04 23:40:00,
2013-01-04 18:42:00,45.8,22.9,30.27,WNW,282,7.0,0.0,40,0.00,,,0.00,WeatherTracker,2013-01-04 23:42:00,
2013-01-04 18:45:00,45.7,22.8,30.27,West,269,5.0,0.0,40,0.00,,,0.00,WeatherTracker,2013-01-04 23:45:00,
2013-01-04 18:46:00,45.7,22.2,30.27,West,269,3.0,0.0,39,0.00,,,0.00,WeatherTracker,2013-01-04 23:46:00,
2013-01-04 18:47:00,45.7,22.2,30.27,West,271,4.0,0.0,39,0.00,,,0.00,WeatherTracker,2013-01-04 23:47:00,
2013-01-04 18:48:00,45.7,22.8,30.27,WNW,290,2.0,0.0,40,0.00,,,0.00,WeatherTracker,2013-01-04 23:48:00,
2013-01-04 18:50:00,45.6,22.7,30.27,West,273,7.0,0.0,40,0.00,,,0.00,WeatherTracker,2013-01-04 23:50:00,
2013-01-04 18:51:00,45.6,22.1,30.27,West,271,4.0,0.0,39,0.00,,,0.00,WeatherTracker,2013-01-04 23:51:00,
2013-01-04 18:52:00,45.6,22.1,30.27,West,271,4.0,0.0,39,0.00,,,0.00,WeatherTracker,2013-01-04 23:52:00,
2013-01-04 18:54:00,45.6,22.1,30.28,West,281,5.0,0.0,39,0.00,,,0.00,WeatherTracker,2013-01-04 23:54:00,
2013-01-04 18:56:00,45.6,22.1,30.28,WSW,244,3.0,0.0,39,0.00,,,0.00,WeatherTracker,2013-01-04 23:56:00,
2013-01-04 18:58:00,45.5,22.0,30.27,WSW,239,3.0,0.0,39,0.00,,,0.00,WeatherTracker,2013-01-04 23:58:00,
2013-01-04 19:00:00,45.5,22.0,30.28,West,271,4.0,0.0,39,0.00,,,0.00,WeatherTracker,2013-01-05 00:00:00,
2013-01-04 19:01:00,45.4,21.9,30.28,WSW,254,3.0,0.0,39,0.00,,,0.00,WeatherTracker,2013-01-05 00:01:00,
2013-01-04 19:02:00,45.4,21.9,30.28,West,267,4.0,0.0,39,0.00,,,0.00,WeatherTracker,2013-01-05 00:02:00,
2013-01-04 19:03:00,45.4,21.9,30.28,West,264,2.0,0.0,39,0.00,,,0.00,WeatherTracker,2013-01-05 00:03:00,
2013-01-04 19:05:00,45.4,21.9,30.28,West,269,5.0,0.0,39,0.00,,,0.00,WeatherTracker,2013-01-05 00:05:00,
2013-01-04 19:07:00,45.3,21.8,30.28,WNW,287,4.0,0.0,39,0.00,,,0.00,WeatherTracker,2013-01-05 00:07:00,
2013-01-04 19:08:00,45.3,21.8,30.28,WNW,284,3.0,0.0,39,0.00,,,0.00,WeatherTracker,2013-01-05 00:08:00,
2013-01-04 19:10:00,45.2,21.7,30.28,WSW,258,4.0,0.0,39,0.00,,,0.00,WeatherTracker,2013-01-05 00:10:00,
2013-01-04 19:12:00,45.1,21.6,30.29,West,266,5.0,0.0,39,0.00,,,0.00,WeatherTracker,2013-01-05 00:12:00,
2013-01-04 19:15:00,44.9,22.1,30.29,West,273,5.0,0.0,40,0.00,,,0.00,WeatherTracker,2013-01-05 00:15:00,
2013-01-04 19:16:00,44.8,22.0,30.29,WNW,296,4.0,0.0,40,0.00,,,0.00,WeatherTracker,2013-01-05 00:16:00,
2013-01-04 19:18:00,44.7,21.9,30.29,West,261,3.0,0.0,40,0.00,,,0.00,WeatherTracker,2013-01-05 00:18:00,
2013-01-04 19:20:00,44.5,22.3,30.29,SW,235,7.0,0.0,41,0.00,,,0.00,WeatherTracker,2013-01-05 00:20:00,
2013-01-04 19:22:00,44.5,21.7,30.29,WNW,291,4.0,0.0,40,0.00,,,0.00,WeatherTracker,2013-01-05 00:22:00,
2013-01-04 19:25:00,44.4,22.2,30.30,WNW,303,4.0,0.0,41,0.00,,,0.00,WeatherTracker,2013-01-05 00:25:00,
2013-01-04 19:26:00,44.3,22.1,30.30,West,281,4.0,0.0,41,0.00,,,0.00,WeatherTracker,2013-01-05 00:26:00,
2013-01-04 19:27:00,44.2,22.0,30.30,West,281,3.0,0.0,41,0.00,,,0.00,WeatherTracker,2013-01-05 00:27:00,
2013-01-04 19:30:00,44.0,22.4,30.30,WNW,291,5.0,0.0,42,0.00,,,0.00,WeatherTracker,2013-01-05 00:30:00,
2013-01-04 19:31:00,43.9,22.3,30.30,WNW,292,4.0,0.0,42,0.00,,,0.00,WeatherTracker,2013-01-05 00:31:00,
2013-01-04 19:33:00,43.8,22.2,30.30,WNW,289,4.0,0.0,42,0.00,,,0.00,WeatherTracker,2013-01-05 00:33:00,
2013-01-04 19:35:00,43.6,22.0,30.30,WNW,293,2.0,0.0,42,0.00,,,0.00,WeatherTracker,2013-01-05 00:35:00,
2013-01-04 19:36:00,43.6,22.0,30.30,WNW,298,4.0,0.0,42,0.00,,,0.00,WeatherTracker,2013-01-05 00:36:00,
2013-01-04 19:39:00,43.5,21.9,30.30,WNW,283,6.0,0.0,42,0.00,,,0.00,WeatherTracker,2013-01-05 00:39:00,
2013-01-04 19:40:00,43.4,22.4,30.30,WNW,298,5.0,0.0,43,0.00,,,0.00,WeatherTracker,2013-01-05 00:40:00,
2013-01-04 19:41:00,43.4,22.4,30.31,WNW,285,4.0,0.0,43,0.00,,,0.00,WeatherTracker,2013-01-05 00:41:00,
2013-01-04 19:42:00,43.3,21.8,30.31,WNW,287,7.0,0.0,42,0.00,,,0.00,WeatherTracker,2013-01-05 00:42:00,
2013-01-04 19:44:00,43.2,22.2,30.31,West,278,8.0,0.0,43,0.00,,,0.00,WeatherTracker,2013-01-05 00:44:00,
2013-01-04 19:46:00,43.2,21.7,30.31,West,273,8.0,0.0,42,0.00,,,0.00,WeatherTracker,2013-01-05 00:46:00,
2013-01-04 19:48:00,43.2,21.1,30.31,West,281,7.0,0.0,41,0.00,,,0.00,WeatherTracker,2013-01-05 00:48:00,
2013-01-04 19:49:00,43.2,21.1,30.31,WSW,250,3.0,0.0,41,0.00,,,0.00,WeatherTracker,2013-01-05 00:49:00,
2013-01-04 19:51:00,43.1,21.0,30.30,WNW,297,5.0,0.0,41,0.00,,,0.00,WeatherTracker,2013-01-05 00:51:00,
2013-01-04 19:53:00,43.1,21.0,30.31,West,279,5.0,0.0,41,0.00,,,0.00,WeatherTracker,2013-01-05 00:53:00,
2013-01-04 19:54:00,43.0,20.9,30.30,NW,304,5.0,0.0,41,0.00,,,0.00,WeatherTracker,2013-01-05 00:54:00,
2013-01-04 19:56:00,42.9,20.8,30.31,WNW,292,5.0,0.0,41,0.00,,,0.00,WeatherTracker,2013-01-05 00:56:00,
2013-01-04 19:59:00,42.8,20.7,30.31,WNW,284,4.0,0.0,41,0.00,,,0.00,WeatherTracker,2013-01-05 00:59:00,
2013-01-04 20:00:00,42.7,20.7,30.31,WNW,294,5.0,0.0,41,0.00,,,0.00,WeatherTracker,2013-01-05 01:00:00,
2013-01-04 20:01:00,42.6,20.6,30.31,WNW,301,3.0,0.0,41,0.00,,,0.00,WeatherTracker,2013-01-05 01:01:00,
2013-01-04 20:04:00,42.4,21.0,30.31,WNW,297,2.0,0.0,42,0.00,,,0.00,WeatherTracker,2013-01-05 01:04:00,
2013-01-04 20:05:00,42.4,21.0,30.31,WNW,298,4.0,0.0,42,0.00,,,0.00,WeatherTracker,2013-01-05 01:05:00,
2013-01-04 20:06:00,42.3,20.9,30.31,WNW,298,3.0,0.0,42,0.00,,,0.00,WeatherTracker,2013-01-05 01:06:00,
2013-01-04 20:11:00,41.9,21.1,30.31,NW,309,3.0,0.0,43,0.00,,,0.00,WeatherTracker,2013-01-05 01:11:00,
2013-01-04 20:12:00,41.8,21.0,30.31,WNW,296,5.0,0.0,43,0.00,,,0.00,WeatherTracker,2013-01-05 01:12:00,
2013-01-04 20:16:00,41.5,21.2,30.32,WNW,300,6.0,0.0,44,0.00,,,0.00,WeatherTracker,2013-01-05 01:16:00,
2013-01-04 20:17:00,41.5,21.2,30.32,WNW,300,7.0,0.0,44,0.00,,,0.00,WeatherTracker,2013-01-05 01:17:00,
2013-01-04 20:18:00,41.4,21.1,30.32,West,267,5.0,0.0,44,0.00,,,0.00,WeatherTracker,2013-01-05 01:18:00,
2013-01-04 20:21:00,41.3,21.0,30.32,WNW,294,6.0,0.0,44,0.00,,,0.00,WeatherTracker,2013-01-05 01:21:00,
2013-01-04 20:22:00,41.3,21.0,30.32,West,273,7.0,0.0,44,0.00,,,0.00,WeatherTracker,2013-01-05 01:22:00,
2013-01-04 20:23:00,41.3,21.0,30.32,West,278,6.0,0.0,44,0.00,,,0.00,WeatherTracker,2013-01-05 01:23:00,
2013-01-04 20:27:00,41.2,21.0,30.32,WNW,290,10.0,0.0,44,0.00,,,0.00,WeatherTracker,2013-01-05 01:27:00,
2013-01-04 20:28:00,41.2,21.0,30.32,WNW,286,5.0,0.0,44,0.00,,,0.00,WeatherTracker,2013-01-05 01:28:00,
2013-01-04 20:32:00,41.0,21.3,30.33,NNW,332,3.0,0.0,45,0.00,,,0.00,WeatherTracker,2013-01-05 01:32:00,
2013-01-04 20:33:00,40.9,21.2,30.33,NW,325,4.0,0.0,45,0.00,,,0.00,WeatherTracker,2013-01-05 01:33:00,
2013-01-04 20:34:00,40.9,21.2,30.33,West,274,7.0,0.0,45,0.00,,,0.00,WeatherTracker,2013-01-05 01:34:00,
2013-01-04 20:37:00,40.7,21.0,30.33,WNW,290,5.0,0.0,45,0.00,,,0.00,WeatherTracker,2013-01-05 01:37:00,
2013-01-04 20:38:00,40.7,21.0,30.33,WNW,288,5.0,0.0,45,0.00,,,0.00,WeatherTracker,2013-01-05 01:38:00,
2013-01-04 20:39:00,40.7,21.0,30.33,WNW,286,5.0,0.0,45,0.00,,,0.00,WeatherTracker,2013-01-05 01:39:00,
2013-01-04 20:43:00,40.5,20.8,30.33,West,281,5.0,0.0,45,0.00,,,0.00,WeatherTracker,2013-01-05 01:43:00,
2013-01-04 20:44:00,40.4,20.8,30.33,NW,304,5.0,0.0,45,0.00,,,0.00,WeatherTracker,2013-01-05 01:44:00,
2013-01-04 20:48:00,40.2,21.1,30.33,WNW,289,3.0,0.0,46,0.00,,,0.00,WeatherTracker,2013-01-05 01:48:00,
2013-01-04 20:49:00,40.2,21.1,30.33,NW,305,6.0,0.0,46,0.00,,,0.00,WeatherTracker,2013-01-05 01:49:00,
2013-01-04 20:50:00,40.1,21.0,30.34,WNW,292,10.0,0.0,46,0.00,,,0.00,WeatherTracker,2013-01-05 01:50:00,
2013-01-04 20:53:00,40.0,20.9,30.34,WNW,290,10.0,0.0,46,0.00,,,0.00,WeatherTracker,2013-01-05 01:53:00,
2013-01-04 20:54:00,40.0,20.9,30.34,WNW,286,7.0,0.0,46,0.00,,,0.00,WeatherTracker,2013-01-05 01:54:00,
2013-01-04 20:55:00,39.9,20.8,30.34,NW,304,7.0,0.0,46,0.00,,,0.00,WeatherTracker,2013-01-05 01:55:00,
2013-01-04 20:59:00,39.9,20.8,30.33,NW,313,3.0,0.0,46,0.00,,,0.00,WeatherTracker,2013-01-05 01:59:00,
2013-01-04 21:00:00,39.9,20.8,30.33,West,267,5.0,0.0,46,0.00,,,0.00,WeatherTracker,2013-01-05 02:00:00,
2013-01-04 21:01:00,39.8,21.2,30.33,WNW,302,5.0,0.0,47,0.00,,,0.00,WeatherTracker,2013-01-05 02:01:00,
2013-01-04 21:04:00,39.7,21.1,30.33,West,265,5.0,0.0,47,0.00,,,0.00,WeatherTracker,2013-01-05 02:04:00,
2013-01-04 21:05:00,39.7,21.1,30.33,NW,308,4.0,0.0,47,0.00,,,0.00,WeatherTracker,2013-01-05 02:05:00,
2013-01-04 21:06:00,39.7,21.1,30.33,NW,305,3.0,0.0,47,0.00,,,0.00,WeatherTracker,2013-01-05 02:06:00,
2013-01-04 21:09:00,39.5,21.5,30.33,NW,311,0.0,0.0,48,0.00,,,0.00,WeatherTracker,2013-01-05 02:09:00,
2013-01-04 21:10:00,39.3,21.3,30.33,NNW,336,3.0,0.0,48,0.00,,,0.00,WeatherTracker,2013-01-05 02:10:00,
2013-01-04 21:11:00,39.2,21.2,30.33,WNW,302,6.0,0.0,48,0.00,,,0.00,WeatherTracker,2013-01-05 02:11:00,
2013-01-04 21:12:00,39.2,21.2,30.33,NW,321,5.0,0.0,48,0.00,,,0.00,WeatherTracker,2013-01-05 02:12:00,
2013-01-04 21:15:00,39.0,21.0,30.33,NW,311,2.0,0.0,48,0.00,,,0.00,WeatherTracker,2013-01-05 02:15:00,
2013-01-04 21:17:00,38.9,21.4,30.33,NW,325,2.0,0.0,49,0.00,,,0.00,WeatherTracker,2013-01-05 02:17:00,
2013-01-04 21:20:00,38.7,21.2,30.33,NNW,329,4.0,0.0,49,0.00,,,0.00,WeatherTracker,2013-01-05 02:20:00,
2013-01-04 21:22:00,38.6,21.1,30.33,NNW,329,4.0,0.0,49,0.00,,,0.00,WeatherTracker,2013-01-05 02:22:00,
2013-01-04 21:23:00,38.6,21.1,30.34,West,279,6.0,0.0,49,0.00,,,0.00,WeatherTracker,2013-01-05 02:23:00,
2013-01-04 21:25:00,38.5,21.5,30.34,NW,317,3.0,0.0,50,0.00,,,0.00,WeatherTracker,2013-01-05 02:25:00,
2013-01-04 21:27:00,38.5,21.0,30.34,NW,313,1.0,0.0,49,0.00,,,0.00,WeatherTracker,2013-01-05 02:27:00,
2013-01-04 21:28:00,38.4,21.4,30.34,NW,311,3.0,0.0,50,0.00,,,0.00,WeatherTracker,2013-01-05 02:28:00,
2013-01-04 21:29:00,38.4,21.4,30.34,WNW,292,4.0,0.0,50,0.00,,,0.00,WeatherTracker,2013-01-05 02:29:00,
2013-01-04 21:30:00,38.3,21.3,30.34,WNW,300,4.0,0.0,50,0.00,,,0.00,WeatherTracker,2013-01-05 02:30:00,
2013-01-04 21:32:00,38.2,21.2,30.34,WNW,293,4.0,0.0,50,0.00,,,0.00,WeatherTracker,2013-01-05 02:32:00,
2013-01-04 21:33:00,38.2,21.2,30.34,NW,324,4.0,0.0,50,0.00,,,0.00,WeatherTracker,2013-01-05 02:33:00,
2013-01-04 21:34:00,38.1,21.6,30.34,NW,304,5.0,0.0,51,0.00,,,0.00,WeatherTracker,2013-01-05 02:34:00,
2013-01-04 21:35:00,38.0,21.0,30.34,NW,315,4.0,0.0,50,0.00,,,0.00,WeatherTracker,2013-01-05 02:35:00,
2013-01-04 21:37:00,38.0,21.0,30.34,NNW,333,3.0,0.0,50,0.00,,,0.00,WeatherTracker,2013-01-05 02:37:00,
2013-01-04 21:38:00,38.0,21.0,30.34,NNW,340,3.0,0.0,50,0.00,,,0.00,WeatherTracker,2013-01-05 02:38:00,
2013-01-04 21:40:00,37.9,21.4,30.34,NW,313,3.0,0.0,51,0.00,,,0.00,WeatherTracker,2013-01-05 02:40:00,
2013-01-04 21:41:00,37.9,21.4,30.34,WNW,298,6.0,0.0,51,0.00,,,0.00,WeatherTracker,2013-01-05 02:41:00,
2013-01-04 21:43:00,37.8,20.8,30.34,WNW,299,4.0,0.0,50,0.00,,,0.00,WeatherTracker,2013-01-05 02:43:00,
2013-01-04 21:44:00,37.8,21.3,30.34,NW,307,3.0,0.0,51,0.00,,,0.00,WeatherTracker,2013-01-05 02:44:00,
2013-01-04 21:45:00,37.7,21.2,30.34,WNW,295,2.0,0.0,51,0.00,,,0.00,WeatherTracker,2013-01-05 02:45:00,
2013-01-04 21:46:00,37.6,21.1,30.34,NW,317,3.0,0.0,51,0.00,,,0.00,WeatherTracker,2013-01-05 02:46:00,
2013-01-04 21:48:00,37.5,21.0,30.34,NNW,327,4.0,0.0,51,0.00,,,0.00,WeatherTracker,2013-01-05 02:48:00,
2013-01-04 21:49:00,37.4,20.9,30.34,NW,309,8.0,0.0,51,0.00,,,0.00,WeatherTracker,2013-01-05 02:49:00,
2013-01-04 21:50:00,37.4,20.9,30.34,NW,324,6.0,0.0,51,0.00,,,0.00,WeatherTracker,2013-01-05 02:50:00,
2013-01-04 21:51:00,37.4,20.9,30.34,WNW,302,9.0,0.0,51,0.00,,,0.00,WeatherTracker,2013-01-05 02:51:00,
2013-01-04 21:53:00,37.4,20.9,30.34,NW,315,3.0,0.0,51,0.00,,,0.00,WeatherTracker,2013-01-05 02:53:00,
2013-01-04 21:55:00,37.3,21.3,30.34,NW,325,3.0,0.0,52,0.00,,,0.00,WeatherTracker,2013-01-05 02:55:00,
2013-01-04 21:57:00,37.2,21.2,30.34,WNW,299,4.0,0.0,52,0.00,,,0.00,WeatherTracker,2013-01-05 02:57:00,
2013-01-04 21:59:00,37.2,20.8,30.34,WNW,293,3.0,0.0,51,0.00,,,0.00,WeatherTracker,2013-01-05 02:59:00,
2013-01-04 22:00:00,37.1,21.1,30.34,NW,306,1.0,0.0,52,0.00,,,0.00,WeatherTracker,2013-01-05 03:00:00,
2013-01-04 22:01:00,37.1,21.1,30.34,NW,306,2.0,0.0,52,0.00,,,0.00,WeatherTracker,2013-01-05 03:01:00,
2013-01-04 22:02:00,37.0,21.0,30.34,WNW,298,4.0,0.0,52,0.00,,,0.00,WeatherTracker,2013-01-05 03:02:00,
2013-01-04 22:05:00,37.0,21.0,30.34,WNW,298,3.0,0.0,52,0.00,,,0.00,WeatherTracker,2013-01-05 03:05:00,
2013-01-04 22:06:00,36.9,20.9,30.34,NW,323,3.0,0.0,52,0.00,,,0.00,WeatherTracker,2013-01-05 03:06:00,
2013-01-04 22:08:00,36.8,20.8,30.33,WNW,298,4.0,0.0,52,0.00,,,0.00,WeatherTracker,2013-01-05 03:08:00,
2013-01-04 22:10:00,36.7,20.8,30.34,WNW,294,4.0,0.0,52,0.00,,,0.00,WeatherTracker,2013-01-05 03:10:00,
2013-01-04 22:11:00,36.7,21.2,30.34,WNW,294,3.0,0.0,53,0.00,,,0.00,WeatherTracker,2013-01-05 03:11:00,
2013-01-04 22:13:00,36.6,21.1,30.34,WNW,285,4.0,0.0,53,0.00,,,0.00,WeatherTracker,2013-01-05 03:13:00,
2013-01-04 22:16:00,36.5,21.5,30.34,WNW,288,4.0,0.0,54,0.00,,,0.00,WeatherTracker,2013-01-05 03:16:00,
2013-01-04 22:17:00,36.4,21.4,30.34,WNW,284,2.0,0.0,54,0.00,,,0.00,WeatherTracker,2013-01-05 03:17:00,
2013-01-04 22:19:00,36.3,21.3,30.34,West,279,3.0,0.0,54,0.00,,,0.00,WeatherTracker,2013-01-05 03:19:00,
2013-01-04 22:21:00,36.3,21.3,30.34,West,271,1.0,0.0,54,0.00,,,0.00,WeatherTracker,2013-01-05 03:21:00,
2013-01-04 22:23:00,36.2,21.2,30.34,West,273,2.0,0.0,54,0.00,,,0.00,WeatherTracker,2013-01-05 03:23:00,
2013-01-04 22:24:00,36.2,21.2,30.34,West,280,1.0,0.0,54,0.00,,,0.00,WeatherTracker,2013-01-05 03:24:00,
2013-01-04 22:26:00,36.0,21.4,30.34,NW,309,6.0,0.0,55,0.00,,,0.00,WeatherTracker,2013-01-05 03:26:00,
2013-01-04 22:27:00,35.9,21.3,30.34,West,281,4.0,0.0,55,0.00,,,0.00,WeatherTracker,2013-01-05 03:27:00,
2013-01-04 22:28:00,35.9,21.3,30.33,WNW,282,2.0,0.0,55,0.00,,,0.00,WeatherTracker,2013-01-05 03:28:00,
2013-01-04 22:30:00,35.8,21.2,30.33,West,266,1.0,0.0,55,0.00,,,0.00,WeatherTracker,2013-01-05 03:30:00,
2013-01-04 22:32:00,35.8,21.2,30.34,West,266,1.0,0.0,55,0.00,,,0.00,WeatherTracker,2013-01-05 03:32:00,
2013-01-04 22:33:00,35.8,21.2,30.34,West,271,1.0,0.0,55,0.00,,,0.00,WeatherTracker,2013-01-05 03:33:00,
2013-01-04 22:35:00,35.7,21.1,30.33,West,271,1.0,0.0,55,0.00,,,0.00,WeatherTracker,2013-01-05 03:35:00,
2013-01-04 22:37:00,35.7,21.1,30.33,West,271,2.0,0.0,55,0.00,,,0.00,WeatherTracker,2013-01-05 03:37:00,
2013-01-04 22:38:00,35.7,21.1,30.33,West,271,1.0,0.0,55,0.00,,,0.00,WeatherTracker,2013-01-05 03:38:00,
2013-01-04 22:40:00,35.6,21.0,30.33,West,271,2.0,0.0,55,0.00,,,0.00,WeatherTracker,2013-01-05 03:40:00,
2013-01-04 22:41:00,35.6,21.0,30.33,West,271,2.0,0.0,55,0.00,,,0.00,WeatherTracker,2013-01-05 03:41:00,
2013-01-04 22:43:00,35.5,21.0,30.33,West,271,0.0,0.0,55,0.00,,,0.00,WeatherTracker,2013-01-05 03:43:00,
2013-01-04 22:44:00,35.4,21.3,30.33,West,271,0.0,0.0,56,0.00,,,0.00,WeatherTracker,2013-01-05 03:44:00,
2013-01-04 22:45:00,35.3,21.2,30.33,West,271,0.0,0.0,56,0.00,,,0.00,WeatherTracker,2013-01-05 03:45:00,
2013-01-04 22:47:00,35.3,21.2,30.33,West,271,0.0,0.0,56,0.00,,,0.00,WeatherTracker,2013-01-05 03:47:00,
2013-01-04 22:48:00,35.2,21.1,30.33,West,271,0.0,0.0,56,0.00,,,0.00,WeatherTracker,2013-01-05 03:48:00,
2013-01-04 22:50:00,35.2,21.1,30.33,West,271,0.0,0.0,56,0.00,,,0.00,WeatherTracker,2013-01-05 03:50:00,
2013-01-04 22:52:00,35.1,21.0,30.33,West,271,0.0,0.0,56,0.00,,,0.00,WeatherTracker,2013-01-05 03:52:00,
2013-01-04 22:53:00,35.1,21.0,30.33,West,271,1.0,0.0,56,0.00,,,0.00,WeatherTracker,2013-01-05 03:53:00,
2013-01-04 22:56:00,34.8,21.1,30.33,West,271,1.0,0.0,57,0.00,,,0.00,WeatherTracker,2013-01-05 03:56:00,
2013-01-04 22:57:00,34.8,21.1,30.33,West,271,0.0,0.0,57,0.00,,,0.00,WeatherTracker,2013-01-05 03:57:00,
2013-01-04 22:58:00,34.7,21.0,30.33,West,271,0.0,0.0,57,0.00,,,0.00,WeatherTracker,2013-01-05 03:58:00,
2013-01-04 23:01:00,34.5,21.3,30.33,West,271,1.0,0.0,58,0.00,,,0.00,WeatherTracker,2013-01-05 04:01:00,
2013-01-04 23:02:00,34.5,21.3,30.33,West,271,2.0,0.0,58,0.00,,,0.00,WeatherTracker,2013-01-05 04:02:00,
2013-01-04 23:03:00,34.3,21.1,30.33,West,271,1.0,0.0,58,0.00,,,0.00,WeatherTracker,2013-01-05 04:03:00,
2013-01-04 23:06:00,34.0,21.2,30.33,West,271,0.0,0.0,59,0.00,,,0.00,WeatherTracker,2013-01-05 04:06:00,
2013-01-04 23:07:00,33.9,21.5,30.33,West,271,0.0,0.0,60,0.00,,,0.00,WeatherTracker,2013-01-05 04:07:00,
2013-01-04 23:08:00,33.8,21.4,30.33,West,271,1.0,0.0,60,0.00,,,0.00,WeatherTracker,2013-01-05 04:08:00,
2013-01-04 23:09:00,33.7,21.3,30.33,West,271,0.0,0.0,60,0.00,,,0.00,WeatherTracker,2013-01-05 04:09:00,
2013-01-04 23:11:00,33.4,21.4,30.33,West,271,1.0,0.0,61,0.00,,,0.00,WeatherTracker,2013-01-05 04:11:00,
2013-01-04 23:14:00,33.2,21.2,30.33,West,271,0.0,0.0,61,0.00,,,0.00,WeatherTracker,2013-01-05 04:14:00,
2013-01-04 23:17:00,32.8,21.2,30.33,West,271,0.0,0.0,62,0.00,,,0.00,WeatherTracker,2013-01-05 04:17:00,
2013-01-04 23:19:00,32.6,21.4,30.33,West,271,1.0,0.0,63,0.00,,,0.00,WeatherTracker,2013-01-05 04:19:00,
2013-01-04 23:20:00,32.5,21.7,30.33,West,271,2.0,0.0,64,0.00,,,0.00,WeatherTracker,2013-01-05 04:20:00,
2013-01-04 23:22:00,32.3,21.5,30.32,West,271,1.0,0.0,64,0.00,,,0.00,WeatherTracker,2013-01-05 04:22:00,
2013-01-04 23:24:00,32.0,21.9,30.32,West,271,2.0,0.0,66,0.00,,,0.00,WeatherTracker,2013-01-05 04:24:00,
2013-01-04 23:25:00,31.9,21.9,30.32,West,271,2.0,0.0,66,0.00,,,0.00,WeatherTracker,2013-01-05 04:25:00,
2013-01-04 23:27:00,31.4,22.1,30.32,West,271,1.0,0.0,68,0.00,,,0.00,WeatherTracker,2013-01-05 04:27:00,
2013-01-04 23:29:00,31.2,21.9,30.32,West,271,0.0,0.0,68,0.00,,,0.00,WeatherTracker,2013-01-05 04:29:00,
2013-01-04 23:30:00,31.2,21.9,30.32,West,271,0.0,0.0,68,0.00,,,0.00,WeatherTracker,2013-01-05 04:30:00,
2013-01-04 23:33:00,31.0,21.7,30.33,West,271,0.0,0.0,68,0.00,,,0.00,WeatherTracker,2013-01-05 04:33:00,
2013-01-04 23:35:00,30.9,21.6,30.33,West,271,0.0,0.0,68,0.00,,,0.00,WeatherTracker,2013-01-05 04:35:00,
2013-01-04 23:36:00,31.0,21.7,30.33,West,271,0.0,0.0,68,0.00,,,0.00,WeatherTracker,2013-01-05 04:36:00,
2013-01-04 23:38:00,31.1,21.8,30.32,West,271,0.0,0.0,68,0.00,,,0.00,WeatherTracker,2013-01-05 04:38:00,
2013-01-04 23:40:00,31.3,21.6,30.33,West,271,0.0,0.0,67,0.00,,,0.00,WeatherTracker,2013-01-05 04:40:00,
2013-01-04 23:41:00,31.4,21.7,30.33,West,271,1.0,0.0,67,0.00,,,0.00,WeatherTracker,2013-01-05 04:41:00,
2013-01-04 23:43:00,31.2,21.9,30.32,West,271,1.0,0.0,68,0.00,,,0.00,WeatherTracker,2013-01-05 04:43:00,
2013-01-04 23:45:00,31.1,21.4,30.32,West,271,1.0,0.0,67,0.00,,,0.00,WeatherTracker,2013-01-05 04:45:00,
2013-01-04 23:46:00,31.1,21.8,30.32,West,271,2.0,0.0,68,0.00,,,0.00,WeatherTracker,2013-01-05 04:46:00,
2013-01-04 23:47:00,31.1,21.4,30.32,West,271,1.0,0.0,67,0.00,,,0.00,WeatherTracker,2013-01-05 04:47:00,
2013-01-04 23:49:00,31.2,21.5,30.32,West,271,2.0,0.0,67,0.00,,,0.00,WeatherTracker,2013-01-05 04:49:00,
2013-01-04 23:51:00,31.3,21.6,30.32,West,271,2.0,0.0,67,0.00,,,0.00,WeatherTracker,2013-01-05 04:51:00,
2013-01-04 23:53:00,31.3,21.6,30.32,West,271,1.0,0.0,67,0.00,,,0.00,WeatherTracker,2013-01-05 04:53:00,
2013-01-04 23:54:00,31.3,21.6,30.32,West,271,1.0,0.0,67,0.00,,,0.00,WeatherTracker,2013-01-05 04:54:00,
2013-01-04 23:56:00,31.5,21.5,30.32,West,271,0.0,0.0,66,0.00,,,0.00,WeatherTracker,2013-01-05 04:56:00,
2013-01-04 23:59:00,31.4,21.4,30.32,West,271,1.0,0.0,66,0.00,,,0.00,WeatherTracker,2013-01-05 04:59:00,